<?xml version="1.0" encoding="UTF-8"?>
<gpx xmlns="http://www.topografix.com/GPX/1/1" xmlns:dkl="http://www.gpsware.de/DKL/1/1" xmlns:rtx="http://www.bike-gps.de/RTX/1/1" version="1.1" creator="KOMPASS Digital Map" xmlns:xsi="http://www.w3.org/2001/XMLSchema-instance" xsi:schemaLocation="http://www.topografix.com/GPX/1/1 http://www.topografix.com/GPX/1/1/gpx.xsd">
 <metadata>
 <name>KOMPASS Digital Map Track</name>
 <desc> </desc>
 <time>2011-09-29T14:11:02Z</time>
 <bounds minlat="47.142632" minlon="13.790266" maxlat="47.257797" maxlon="13.812157"/>
 </metadata>
 <trk>
 <name>2011_Lessachtal</name>
 <cmt>Lessachtal</cmt>
 <extensions>
 <dkl:dkl>
 <dkl:format_version>1.1</dkl:format_version>
 <dkl:format>
 <dkl:color>FF0000</dkl:color>
 <dkl:style>00000000</dkl:style>
 <dkl:strength>3</dkl:strength>
 <dkl:transparent>0</dkl:transparent>
 </dkl:format>
 <dkl:profile>
 <dkl:mode>0</dkl:mode>
 <dkl:smooth>0</dkl:smooth>
 </dkl:profile>
 </dkl:dkl>
 </extensions>
 <trkseg>
 <trkpt lat="47.150799" lon="13.790266">
 <ele>1059.89</ele>
 <time>2011-09-29T07:54:11Z</time>
 </trkpt>
 <trkpt lat="47.150734" lon="13.790383">
 <ele>1059.62</ele>
 <time>2011-09-29T07:54:20Z</time>
 </trkpt>
 <trkpt lat="47.150711" lon="13.790455">
 <ele>1059.36</ele>
 <time>2011-09-29T07:54:22Z</time>
 </trkpt>
 <trkpt lat="47.150711" lon="13.790502">
 <ele>1059.61</ele>
 <time>2011-09-29T07:54:23Z</time>
 </trkpt>
 <trkpt lat="47.150692" lon="13.790824">
 <ele>1058.83</ele>
 <time>2011-09-29T07:54:29Z</time>
 </trkpt>
 <trkpt lat="47.150600" lon="13.791207">
 <ele>1057.45</ele>
 <time>2011-09-29T07:54:35Z</time>
 </trkpt>
 <trkpt lat="47.150509" lon="13.791479">
 <ele>1056.40</ele>
 <time>2011-09-29T07:54:39Z</time>
 </trkpt>
 <trkpt lat="47.150303" lon="13.792030">
 <ele>1055.30</ele>
 <time>2011-09-29T07:54:47Z</time>
 </trkpt>
 <trkpt lat="47.150227" lon="13.792250">
 <ele>1054.70</ele>
 <time>2011-09-29T07:54:50Z</time>
 </trkpt>
 <trkpt lat="47.149975" lon="13.792948">
 <ele>1052.73</ele>
 <time>2011-09-29T07:54:59Z</time>
 </trkpt>
 <trkpt lat="47.149757" lon="13.793264">
 <ele>1051.47</ele>
 <time>2011-09-29T07:55:04Z</time>
 </trkpt>
 <trkpt lat="47.149433" lon="13.793523">
 <ele>1050.16</ele>
 <time>2011-09-29T07:55:10Z</time>
 </trkpt>
 <trkpt lat="47.149139" lon="13.793702">
 <ele>1049.16</ele>
 <time>2011-09-29T07:55:16Z</time>
 </trkpt>
 <trkpt lat="47.149097" lon="13.793722">
 <ele>1048.97</ele>
 <time>2011-09-29T07:55:17Z</time>
 </trkpt>
 <trkpt lat="47.148933" lon="13.793715">
 <ele>1048.74</ele>
 <time>2011-09-29T07:55:21Z</time>
 </trkpt>
 <trkpt lat="47.148540" lon="13.793511">
 <ele>1047.44</ele>
 <time>2011-09-29T07:55:30Z</time>
 </trkpt>
 <trkpt lat="47.148403" lon="13.793464">
 <ele>1047.08</ele>
 <time>2011-09-29T07:55:35Z</time>
 </trkpt>
 <trkpt lat="47.148369" lon="13.793456">
 <ele>1047.23</ele>
 <time>2011-09-29T07:55:38Z</time>
 </trkpt>
 <trkpt lat="47.148354" lon="13.793451">
 <ele>1047.18</ele>
 <time>2011-09-29T07:55:41Z</time>
 </trkpt>
 <trkpt lat="47.148289" lon="13.793450">
 <ele>1046.28</ele>
 <time>2011-09-29T07:55:50Z</time>
 </trkpt>
 <trkpt lat="47.148144" lon="13.793467">
 <ele>1045.57</ele>
 <time>2011-09-29T07:55:56Z</time>
 </trkpt>
 <trkpt lat="47.147999" lon="13.793488">
 <ele>1045.05</ele>
 <time>2011-09-29T07:56:00Z</time>
 </trkpt>
 <trkpt lat="47.147655" lon="13.793627">
 <ele>1043.64</ele>
 <time>2011-09-29T07:56:08Z</time>
 </trkpt>
 <trkpt lat="47.147224" lon="13.793866">
 <ele>1042.06</ele>
 <time>2011-09-29T07:56:17Z</time>
 </trkpt>
 <trkpt lat="47.146889" lon="13.794252">
 <ele>1041.20</ele>
 <time>2011-09-29T07:56:25Z</time>
 </trkpt>
 <trkpt lat="47.146694" lon="13.794626">
 <ele>1040.57</ele>
 <time>2011-09-29T07:56:31Z</time>
 </trkpt>
 <trkpt lat="47.146461" lon="13.795110">
 <ele>1037.80</ele>
 <time>2011-09-29T07:56:37Z</time>
 </trkpt>
 <trkpt lat="47.146286" lon="13.795417">
 <ele>1035.75</ele>
 <time>2011-09-29T07:56:41Z</time>
 </trkpt>
 <trkpt lat="47.146179" lon="13.795857">
 <ele>1035.18</ele>
 <time>2011-09-29T07:56:46Z</time>
 </trkpt>
 <trkpt lat="47.146202" lon="13.796121">
 <ele>1034.92</ele>
 <time>2011-09-29T07:56:49Z</time>
 </trkpt>
 <trkpt lat="47.146332" lon="13.796821">
 <ele>1034.61</ele>
 <time>2011-09-29T07:56:58Z</time>
 </trkpt>
 <trkpt lat="47.146339" lon="13.797406">
 <ele>1034.54</ele>
 <time>2011-09-29T07:57:06Z</time>
 </trkpt>
 <trkpt lat="47.146297" lon="13.797703">
 <ele>1034.23</ele>
 <time>2011-09-29T07:57:10Z</time>
 </trkpt>
 <trkpt lat="47.146152" lon="13.798272">
 <ele>1034.01</ele>
 <time>2011-09-29T07:57:18Z</time>
 </trkpt>
 <trkpt lat="47.146000" lon="13.798682">
 <ele>1034.13</ele>
 <time>2011-09-29T07:57:25Z</time>
 </trkpt>
 <trkpt lat="47.145878" lon="13.799071">
 <ele>1034.08</ele>
 <time>2011-09-29T07:57:32Z</time>
 </trkpt>
 <trkpt lat="47.145794" lon="13.799521">
 <ele>1033.20</ele>
 <time>2011-09-29T07:57:38Z</time>
 </trkpt>
 <trkpt lat="47.145638" lon="13.800157">
 <ele>1031.81</ele>
 <time>2011-09-29T07:57:46Z</time>
 </trkpt>
 <trkpt lat="47.145462" lon="13.800621">
 <ele>1031.68</ele>
 <time>2011-09-29T07:57:53Z</time>
 </trkpt>
 <trkpt lat="47.145317" lon="13.800966">
 <ele>1031.97</ele>
 <time>2011-09-29T07:58:00Z</time>
 </trkpt>
 <trkpt lat="47.145313" lon="13.800972">
 <ele>1032.45</ele>
 <time>2011-09-29T07:58:02Z</time>
 </trkpt>
 <trkpt lat="47.145294" lon="13.801020">
 <ele>1033.11</ele>
 <time>2011-09-29T07:58:19Z</time>
 </trkpt>
 <trkpt lat="47.145287" lon="13.801051">
 <ele>1032.71</ele>
 <time>2011-09-29T07:58:20Z</time>
 </trkpt>
 <trkpt lat="47.145199" lon="13.801261">
 <ele>1031.87</ele>
 <time>2011-09-29T07:58:25Z</time>
 </trkpt>
 <trkpt lat="47.145161" lon="13.801364">
 <ele>1031.79</ele>
 <time>2011-09-29T07:58:27Z</time>
 </trkpt>
 <trkpt lat="47.145000" lon="13.801801">
 <ele>1031.39</ele>
 <time>2011-09-29T07:58:34Z</time>
 </trkpt>
 <trkpt lat="47.144833" lon="13.802446">
 <ele>1031.11</ele>
 <time>2011-09-29T07:58:43Z</time>
 </trkpt>
 <trkpt lat="47.144665" lon="13.803128">
 <ele>1030.38</ele>
 <time>2011-09-29T07:58:52Z</time>
 </trkpt>
 <trkpt lat="47.144459" lon="13.803584">
 <ele>1030.06</ele>
 <time>2011-09-29T07:58:59Z</time>
 </trkpt>
 <trkpt lat="47.144093" lon="13.804130">
 <ele>1029.38</ele>
 <time>2011-09-29T07:59:09Z</time>
 </trkpt>
 <trkpt lat="47.143990" lon="13.804387">
 <ele>1029.54</ele>
 <time>2011-09-29T07:59:13Z</time>
 </trkpt>
 <trkpt lat="47.143913" lon="13.804862">
 <ele>1030.33</ele>
 <time>2011-09-29T07:59:20Z</time>
 </trkpt>
 <trkpt lat="47.143890" lon="13.805503">
 <ele>1030.52</ele>
 <time>2011-09-29T07:59:29Z</time>
 </trkpt>
 <trkpt lat="47.143780" lon="13.805969">
 <ele>1030.39</ele>
 <time>2011-09-29T07:59:36Z</time>
 </trkpt>
 <trkpt lat="47.143726" lon="13.806090">
 <ele>1030.19</ele>
 <time>2011-09-29T07:59:38Z</time>
 </trkpt>
 <trkpt lat="47.143475" lon="13.806442">
 <ele>1030.28</ele>
 <time>2011-09-29T07:59:45Z</time>
 </trkpt>
 <trkpt lat="47.143280" lon="13.806755">
 <ele>1029.29</ele>
 <time>2011-09-29T07:59:50Z</time>
 </trkpt>
 <trkpt lat="47.143208" lon="13.806886">
 <ele>1028.85</ele>
 <time>2011-09-29T07:59:52Z</time>
 </trkpt>
 <trkpt lat="47.143044" lon="13.807295">
 <ele>1029.20</ele>
 <time>2011-09-29T07:59:59Z</time>
 </trkpt>
 <trkpt lat="47.142902" lon="13.807572">
 <ele>1030.73</ele>
 <time>2011-09-29T08:00:05Z</time>
 </trkpt>
 <trkpt lat="47.142799" lon="13.807792">
 <ele>1031.53</ele>
 <time>2011-09-29T08:00:10Z</time>
 </trkpt>
 <trkpt lat="47.142689" lon="13.808153">
 <ele>1032.28</ele>
 <time>2011-09-29T08:00:17Z</time>
 </trkpt>
 <trkpt lat="47.142632" lon="13.808433">
 <ele>1032.84</ele>
 <time>2011-09-29T08:00:23Z</time>
 </trkpt>
 <trkpt lat="47.142635" lon="13.808468">
 <ele>1033.02</ele>
 <time>2011-09-29T08:00:24Z</time>
 </trkpt>
 <trkpt lat="47.142715" lon="13.808534">
 <ele>1033.53</ele>
 <time>2011-09-29T08:00:28Z</time>
 </trkpt>
 <trkpt lat="47.142971" lon="13.808569">
 <ele>1033.71</ele>
 <time>2011-09-29T08:00:35Z</time>
 </trkpt>
 <trkpt lat="47.143303" lon="13.808607">
 <ele>1034.49</ele>
 <time>2011-09-29T08:00:43Z</time>
 </trkpt>
 <trkpt lat="47.143448" lon="13.808485">
 <ele>1034.73</ele>
 <time>2011-09-29T08:00:47Z</time>
 </trkpt>
 <trkpt lat="47.143555" lon="13.808271">
 <ele>1034.83</ele>
 <time>2011-09-29T08:00:51Z</time>
 </trkpt>
 <trkpt lat="47.143646" lon="13.808249">
 <ele>1034.84</ele>
 <time>2011-09-29T08:00:53Z</time>
 </trkpt>
 <trkpt lat="47.143837" lon="13.808261">
 <ele>1034.75</ele>
 <time>2011-09-29T08:00:57Z</time>
 </trkpt>
 <trkpt lat="47.143986" lon="13.808256">
 <ele>1034.63</ele>
 <time>2011-09-29T08:01:00Z</time>
 </trkpt>
 <trkpt lat="47.144192" lon="13.808281">
 <ele>1034.46</ele>
 <time>2011-09-29T08:01:04Z</time>
 </trkpt>
 <trkpt lat="47.144463" lon="13.808438">
 <ele>1034.07</ele>
 <time>2011-09-29T08:01:10Z</time>
 </trkpt>
 <trkpt lat="47.144817" lon="13.808736">
 <ele>1033.90</ele>
 <time>2011-09-29T08:01:19Z</time>
 </trkpt>
 <trkpt lat="47.145100" lon="13.808931">
 <ele>1034.18</ele>
 <time>2011-09-29T08:01:26Z</time>
 </trkpt>
 <trkpt lat="47.145363" lon="13.809017">
 <ele>1035.48</ele>
 <time>2011-09-29T08:01:33Z</time>
 </trkpt>
 <trkpt lat="47.145714" lon="13.809106">
 <ele>1036.86</ele>
 <time>2011-09-29T08:01:42Z</time>
 </trkpt>
 <trkpt lat="47.145985" lon="13.809101">
 <ele>1037.83</ele>
 <time>2011-09-29T08:01:49Z</time>
 </trkpt>
 <trkpt lat="47.146362" lon="13.808964">
 <ele>1039.24</ele>
 <time>2011-09-29T08:01:59Z</time>
 </trkpt>
 <trkpt lat="47.146740" lon="13.808827">
 <ele>1040.12</ele>
 <time>2011-09-29T08:02:09Z</time>
 </trkpt>
 <trkpt lat="47.147003" lon="13.808805">
 <ele>1040.93</ele>
 <time>2011-09-29T08:02:16Z</time>
 </trkpt>
 <trkpt lat="47.147301" lon="13.808861">
 <ele>1041.67</ele>
 <time>2011-09-29T08:02:24Z</time>
 </trkpt>
 <trkpt lat="47.147629" lon="13.808866">
 <ele>1042.63</ele>
 <time>2011-09-29T08:02:33Z</time>
 </trkpt>
 <trkpt lat="47.148010" lon="13.808733">
 <ele>1043.99</ele>
 <time>2011-09-29T08:02:44Z</time>
 </trkpt>
 <trkpt lat="47.148331" lon="13.808587">
 <ele>1045.22</ele>
 <time>2011-09-29T08:02:54Z</time>
 </trkpt>
 <trkpt lat="47.148651" lon="13.808412">
 <ele>1046.97</ele>
 <time>2011-09-29T08:03:05Z</time>
 </trkpt>
 <trkpt lat="47.148994" lon="13.808201">
 <ele>1048.56</ele>
 <time>2011-09-29T08:03:16Z</time>
 </trkpt>
 <trkpt lat="47.149353" lon="13.808002">
 <ele>1049.28</ele>
 <time>2011-09-29T08:03:27Z</time>
 </trkpt>
 <trkpt lat="47.149677" lon="13.807886">
 <ele>1050.29</ele>
 <time>2011-09-29T08:03:37Z</time>
 </trkpt>
 <trkpt lat="47.149952" lon="13.807686">
 <ele>1051.04</ele>
 <time>2011-09-29T08:03:46Z</time>
 </trkpt>
 <trkpt lat="47.150227" lon="13.807451">
 <ele>1051.84</ele>
 <time>2011-09-29T08:03:55Z</time>
 </trkpt>
 <trkpt lat="47.150433" lon="13.807409">
 <ele>1052.35</ele>
 <time>2011-09-29T08:04:01Z</time>
 </trkpt>
 <trkpt lat="47.150639" lon="13.807502">
 <ele>1052.75</ele>
 <time>2011-09-29T08:04:07Z</time>
 </trkpt>
 <trkpt lat="47.150860" lon="13.807667">
 <ele>1053.10</ele>
 <time>2011-09-29T08:04:14Z</time>
 </trkpt>
 <trkpt lat="47.151089" lon="13.807690">
 <ele>1053.24</ele>
 <time>2011-09-29T08:04:20Z</time>
 </trkpt>
 <trkpt lat="47.151299" lon="13.807551">
 <ele>1053.50</ele>
 <time>2011-09-29T08:04:26Z</time>
 </trkpt>
 <trkpt lat="47.151508" lon="13.807228">
 <ele>1053.77</ele>
 <time>2011-09-29T08:04:33Z</time>
 </trkpt>
 <trkpt lat="47.151798" lon="13.806748">
 <ele>1054.32</ele>
 <time>2011-09-29T08:04:44Z</time>
 </trkpt>
 <trkpt lat="47.151997" lon="13.806500">
 <ele>1055.07</ele>
 <time>2011-09-29T08:04:51Z</time>
 </trkpt>
 <trkpt lat="47.152206" lon="13.806461">
 <ele>1055.57</ele>
 <time>2011-09-29T08:04:57Z</time>
 </trkpt>
 <trkpt lat="47.152412" lon="13.806572">
 <ele>1056.29</ele>
 <time>2011-09-29T08:05:03Z</time>
 </trkpt>
 <trkpt lat="47.152733" lon="13.806805">
 <ele>1057.88</ele>
 <time>2011-09-29T08:05:13Z</time>
 </trkpt>
 <trkpt lat="47.153034" lon="13.806918">
 <ele>1059.03</ele>
 <time>2011-09-29T08:05:22Z</time>
 </trkpt>
 <trkpt lat="47.153328" lon="13.806971">
 <ele>1060.79</ele>
 <time>2011-09-29T08:05:31Z</time>
 </trkpt>
 <trkpt lat="47.153603" lon="13.807021">
 <ele>1062.35</ele>
 <time>2011-09-29T08:05:40Z</time>
 </trkpt>
 <trkpt lat="47.153885" lon="13.807065">
 <ele>1064.14</ele>
 <time>2011-09-29T08:05:50Z</time>
 </trkpt>
 <trkpt lat="47.154079" lon="13.807111">
 <ele>1065.22</ele>
 <time>2011-09-29T08:05:57Z</time>
 </trkpt>
 <trkpt lat="47.154354" lon="13.807234">
 <ele>1066.47</ele>
 <time>2011-09-29T08:06:07Z</time>
 </trkpt>
 <trkpt lat="47.154594" lon="13.807314">
 <ele>1067.02</ele>
 <time>2011-09-29T08:06:15Z</time>
 </trkpt>
 <trkpt lat="47.154892" lon="13.807352">
 <ele>1067.43</ele>
 <time>2011-09-29T08:06:24Z</time>
 </trkpt>
 <trkpt lat="47.155243" lon="13.807348">
 <ele>1067.78</ele>
 <time>2011-09-29T08:06:34Z</time>
 </trkpt>
 <trkpt lat="47.155602" lon="13.807309">
 <ele>1068.11</ele>
 <time>2011-09-29T08:06:44Z</time>
 </trkpt>
 <trkpt lat="47.155994" lon="13.807233">
 <ele>1068.66</ele>
 <time>2011-09-29T08:06:55Z</time>
 </trkpt>
 <trkpt lat="47.156193" lon="13.807051">
 <ele>1069.05</ele>
 <time>2011-09-29T08:07:02Z</time>
 </trkpt>
 <trkpt lat="47.156403" lon="13.806801">
 <ele>1069.94</ele>
 <time>2011-09-29T08:07:10Z</time>
 </trkpt>
 <trkpt lat="47.156708" lon="13.806455">
 <ele>1071.04</ele>
 <time>2011-09-29T08:07:20Z</time>
 </trkpt>
 <trkpt lat="47.156956" lon="13.806282">
 <ele>1071.31</ele>
 <time>2011-09-29T08:07:27Z</time>
 </trkpt>
 <trkpt lat="47.157249" lon="13.806176">
 <ele>1071.75</ele>
 <time>2011-09-29T08:07:35Z</time>
 </trkpt>
 <trkpt lat="47.157619" lon="13.806010">
 <ele>1072.20</ele>
 <time>2011-09-29T08:07:45Z</time>
 </trkpt>
 <trkpt lat="47.157932" lon="13.805811">
 <ele>1073.10</ele>
 <time>2011-09-29T08:07:54Z</time>
 </trkpt>
 <trkpt lat="47.158226" lon="13.805531">
 <ele>1073.95</ele>
 <time>2011-09-29T08:08:03Z</time>
 </trkpt>
 <trkpt lat="47.158592" lon="13.805056">
 <ele>1075.08</ele>
 <time>2011-09-29T08:08:15Z</time>
 </trkpt>
 <trkpt lat="47.158913" lon="13.804816">
 <ele>1075.65</ele>
 <time>2011-09-29T08:08:24Z</time>
 </trkpt>
 <trkpt lat="47.159225" lon="13.804674">
 <ele>1076.51</ele>
 <time>2011-09-29T08:08:32Z</time>
 </trkpt>
 <trkpt lat="47.159546" lon="13.804583">
 <ele>1076.79</ele>
 <time>2011-09-29T08:08:40Z</time>
 </trkpt>
 <trkpt lat="47.159622" lon="13.804595">
 <ele>1076.92</ele>
 <time>2011-09-29T08:08:42Z</time>
 </trkpt>
 <trkpt lat="47.159805" lon="13.804732">
 <ele>1077.23</ele>
 <time>2011-09-29T08:08:47Z</time>
 </trkpt>
 <trkpt lat="47.159962" lon="13.804921">
 <ele>1077.31</ele>
 <time>2011-09-29T08:08:52Z</time>
 </trkpt>
 <trkpt lat="47.160191" lon="13.805077">
 <ele>1077.65</ele>
 <time>2011-09-29T08:08:58Z</time>
 </trkpt>
 <trkpt lat="47.160233" lon="13.805081">
 <ele>1077.79</ele>
 <time>2011-09-29T08:08:59Z</time>
 </trkpt>
 <trkpt lat="47.160496" lon="13.804984">
 <ele>1078.50</ele>
 <time>2011-09-29T08:09:06Z</time>
 </trkpt>
 <trkpt lat="47.160667" lon="13.804765">
 <ele>1079.12</ele>
 <time>2011-09-29T08:09:12Z</time>
 </trkpt>
 <trkpt lat="47.160847" lon="13.804327">
 <ele>1080.39</ele>
 <time>2011-09-29T08:09:21Z</time>
 </trkpt>
 <trkpt lat="47.161068" lon="13.803757">
 <ele>1081.73</ele>
 <time>2011-09-29T08:09:33Z</time>
 </trkpt>
 <trkpt lat="47.161343" lon="13.803362">
 <ele>1082.81</ele>
 <time>2011-09-29T08:09:43Z</time>
 </trkpt>
 <trkpt lat="47.161659" lon="13.803046">
 <ele>1083.82</ele>
 <time>2011-09-29T08:09:53Z</time>
 </trkpt>
 <trkpt lat="47.161900" lon="13.802967">
 <ele>1084.68</ele>
 <time>2011-09-29T08:10:00Z</time>
 </trkpt>
 <trkpt lat="47.162094" lon="13.803038">
 <ele>1085.11</ele>
 <time>2011-09-29T08:10:06Z</time>
 </trkpt>
 <trkpt lat="47.162430" lon="13.803272">
 <ele>1086.37</ele>
 <time>2011-09-29T08:10:16Z</time>
 </trkpt>
 <trkpt lat="47.162708" lon="13.803418">
 <ele>1087.23</ele>
 <time>2011-09-29T08:10:24Z</time>
 </trkpt>
 <trkpt lat="47.162971" lon="13.803599">
 <ele>1088.40</ele>
 <time>2011-09-29T08:10:33Z</time>
 </trkpt>
 <trkpt lat="47.163162" lon="13.803660">
 <ele>1089.65</ele>
 <time>2011-09-29T08:10:41Z</time>
 </trkpt>
 <trkpt lat="47.163361" lon="13.803617">
 <ele>1090.38</ele>
 <time>2011-09-29T08:10:47Z</time>
 </trkpt>
 <trkpt lat="47.163551" lon="13.803606">
 <ele>1091.17</ele>
 <time>2011-09-29T08:10:54Z</time>
 </trkpt>
 <trkpt lat="47.163795" lon="13.803578">
 <ele>1092.23</ele>
 <time>2011-09-29T08:11:02Z</time>
 </trkpt>
 <trkpt lat="47.164066" lon="13.803469">
 <ele>1092.96</ele>
 <time>2011-09-29T08:11:09Z</time>
 </trkpt>
 <trkpt lat="47.164494" lon="13.803338">
 <ele>1094.42</ele>
 <time>2011-09-29T08:11:19Z</time>
 </trkpt>
 <trkpt lat="47.164825" lon="13.803261">
 <ele>1095.61</ele>
 <time>2011-09-29T08:11:27Z</time>
 </trkpt>
 <trkpt lat="47.165142" lon="13.803240">
 <ele>1096.80</ele>
 <time>2011-09-29T08:11:35Z</time>
 </trkpt>
 <trkpt lat="47.165379" lon="13.803329">
 <ele>1097.31</ele>
 <time>2011-09-29T08:11:41Z</time>
 </trkpt>
 <trkpt lat="47.165627" lon="13.803492">
 <ele>1098.35</ele>
 <time>2011-09-29T08:11:49Z</time>
 </trkpt>
 <trkpt lat="47.165813" lon="13.803764">
 <ele>1098.92</ele>
 <time>2011-09-29T08:11:56Z</time>
 </trkpt>
 <trkpt lat="47.166012" lon="13.804179">
 <ele>1100.45</ele>
 <time>2011-09-29T08:12:06Z</time>
 </trkpt>
 <trkpt lat="47.166218" lon="13.804549">
 <ele>1101.82</ele>
 <time>2011-09-29T08:12:16Z</time>
 </trkpt>
 <trkpt lat="47.166397" lon="13.804775">
 <ele>1103.52</ele>
 <time>2011-09-29T08:12:25Z</time>
 </trkpt>
 <trkpt lat="47.166595" lon="13.804907">
 <ele>1104.18</ele>
 <time>2011-09-29T08:12:31Z</time>
 </trkpt>
 <trkpt lat="47.166798" lon="13.804979">
 <ele>1104.57</ele>
 <time>2011-09-29T08:12:36Z</time>
 </trkpt>
 <trkpt lat="47.167049" lon="13.805081">
 <ele>1105.08</ele>
 <time>2011-09-29T08:12:42Z</time>
 </trkpt>
 <trkpt lat="47.167290" lon="13.805253">
 <ele>1105.25</ele>
 <time>2011-09-29T08:12:48Z</time>
 </trkpt>
 <trkpt lat="47.167507" lon="13.805520">
 <ele>1105.65</ele>
 <time>2011-09-29T08:12:55Z</time>
 </trkpt>
 <trkpt lat="47.167793" lon="13.805915">
 <ele>1106.75</ele>
 <time>2011-09-29T08:13:06Z</time>
 </trkpt>
 <trkpt lat="47.168056" lon="13.806169">
 <ele>1107.84</ele>
 <time>2011-09-29T08:13:15Z</time>
 </trkpt>
 <trkpt lat="47.168362" lon="13.806300">
 <ele>1109.09</ele>
 <time>2011-09-29T08:13:24Z</time>
 </trkpt>
 <trkpt lat="47.168671" lon="13.806385">
 <ele>1110.18</ele>
 <time>2011-09-29T08:13:33Z</time>
 </trkpt>
 <trkpt lat="47.169041" lon="13.806510">
 <ele>1111.74</ele>
 <time>2011-09-29T08:13:44Z</time>
 </trkpt>
 <trkpt lat="47.169357" lon="13.806667">
 <ele>1113.02</ele>
 <time>2011-09-29T08:13:54Z</time>
 </trkpt>
 <trkpt lat="47.169640" lon="13.806855">
 <ele>1114.34</ele>
 <time>2011-09-29T08:14:04Z</time>
 </trkpt>
 <trkpt lat="47.169830" lon="13.807100">
 <ele>1115.59</ele>
 <time>2011-09-29T08:14:12Z</time>
 </trkpt>
 <trkpt lat="47.169914" lon="13.807341">
 <ele>1116.12</ele>
 <time>2011-09-29T08:14:18Z</time>
 </trkpt>
 <trkpt lat="47.169979" lon="13.807507">
 <ele>1117.05</ele>
 <time>2011-09-29T08:14:23Z</time>
 </trkpt>
 <trkpt lat="47.170097" lon="13.807680">
 <ele>1118.09</ele>
 <time>2011-09-29T08:14:29Z</time>
 </trkpt>
 <trkpt lat="47.170277" lon="13.807824">
 <ele>1118.91</ele>
 <time>2011-09-29T08:14:35Z</time>
 </trkpt>
 <trkpt lat="47.170513" lon="13.807912">
 <ele>1119.52</ele>
 <time>2011-09-29T08:14:42Z</time>
 </trkpt>
 <trkpt lat="47.170750" lon="13.807980">
 <ele>1120.11</ele>
 <time>2011-09-29T08:14:49Z</time>
 </trkpt>
 <trkpt lat="47.171173" lon="13.808041">
 <ele>1120.98</ele>
 <time>2011-09-29T08:15:01Z</time>
 </trkpt>
 <trkpt lat="47.171551" lon="13.808035">
 <ele>1121.19</ele>
 <time>2011-09-29T08:15:11Z</time>
 </trkpt>
 <trkpt lat="47.171989" lon="13.807864">
 <ele>1121.14</ele>
 <time>2011-09-29T08:15:22Z</time>
 </trkpt>
 <trkpt lat="47.172482" lon="13.807628">
 <ele>1121.82</ele>
 <time>2011-09-29T08:15:34Z</time>
 </trkpt>
 <trkpt lat="47.172783" lon="13.807519">
 <ele>1122.65</ele>
 <time>2011-09-29T08:15:42Z</time>
 </trkpt>
 <trkpt lat="47.173035" lon="13.807512">
 <ele>1123.46</ele>
 <time>2011-09-29T08:15:49Z</time>
 </trkpt>
 <trkpt lat="47.173306" lon="13.807665">
 <ele>1123.78</ele>
 <time>2011-09-29T08:15:56Z</time>
 </trkpt>
 <trkpt lat="47.173698" lon="13.807941">
 <ele>1124.37</ele>
 <time>2011-09-29T08:16:07Z</time>
 </trkpt>
 <trkpt lat="47.174004" lon="13.808031">
 <ele>1125.00</ele>
 <time>2011-09-29T08:16:15Z</time>
 </trkpt>
 <trkpt lat="47.174351" lon="13.808101">
 <ele>1125.70</ele>
 <time>2011-09-29T08:16:24Z</time>
 </trkpt>
 <trkpt lat="47.174889" lon="13.808205">
 <ele>1126.51</ele>
 <time>2011-09-29T08:16:38Z</time>
 </trkpt>
 <trkpt lat="47.175232" lon="13.808255">
 <ele>1127.08</ele>
 <time>2011-09-29T08:16:47Z</time>
 </trkpt>
 <trkpt lat="47.175602" lon="13.808288">
 <ele>1128.39</ele>
 <time>2011-09-29T08:16:57Z</time>
 </trkpt>
 <trkpt lat="47.175972" lon="13.808277">
 <ele>1129.58</ele>
 <time>2011-09-29T08:17:07Z</time>
 </trkpt>
 <trkpt lat="47.176319" lon="13.808277">
 <ele>1130.17</ele>
 <time>2011-09-29T08:17:16Z</time>
 </trkpt>
 <trkpt lat="47.176819" lon="13.808330">
 <ele>1130.64</ele>
 <time>2011-09-29T08:17:29Z</time>
 </trkpt>
 <trkpt lat="47.177219" lon="13.808397">
 <ele>1131.58</ele>
 <time>2011-09-29T08:17:40Z</time>
 </trkpt>
 <trkpt lat="47.177616" lon="13.808453">
 <ele>1132.56</ele>
 <time>2011-09-29T08:17:51Z</time>
 </trkpt>
 <trkpt lat="47.177959" lon="13.808460">
 <ele>1133.20</ele>
 <time>2011-09-29T08:18:00Z</time>
 </trkpt>
 <trkpt lat="47.178368" lon="13.808377">
 <ele>1134.22</ele>
 <time>2011-09-29T08:18:11Z</time>
 </trkpt>
 <trkpt lat="47.178734" lon="13.808296">
 <ele>1134.97</ele>
 <time>2011-09-29T08:18:21Z</time>
 </trkpt>
 <trkpt lat="47.179031" lon="13.808229">
 <ele>1135.70</ele>
 <time>2011-09-29T08:18:29Z</time>
 </trkpt>
 <trkpt lat="47.179394" lon="13.808142">
 <ele>1136.70</ele>
 <time>2011-09-29T08:18:39Z</time>
 </trkpt>
 <trkpt lat="47.179653" lon="13.808050">
 <ele>1137.70</ele>
 <time>2011-09-29T08:18:47Z</time>
 </trkpt>
 <trkpt lat="47.179947" lon="13.807940">
 <ele>1138.52</ele>
 <time>2011-09-29T08:18:55Z</time>
 </trkpt>
 <trkpt lat="47.180298" lon="13.807765">
 <ele>1139.63</ele>
 <time>2011-09-29T08:19:05Z</time>
 </trkpt>
 <trkpt lat="47.180618" lon="13.807613">
 <ele>1140.60</ele>
 <time>2011-09-29T08:19:14Z</time>
 </trkpt>
 <trkpt lat="47.180965" lon="13.807453">
 <ele>1141.60</ele>
 <time>2011-09-29T08:19:24Z</time>
 </trkpt>
 <trkpt lat="47.181255" lon="13.807350">
 <ele>1142.06</ele>
 <time>2011-09-29T08:19:32Z</time>
 </trkpt>
 <trkpt lat="47.181580" lon="13.807230">
 <ele>1142.63</ele>
 <time>2011-09-29T08:19:41Z</time>
 </trkpt>
 <trkpt lat="47.181957" lon="13.807027">
 <ele>1144.17</ele>
 <time>2011-09-29T08:19:52Z</time>
 </trkpt>
 <trkpt lat="47.182251" lon="13.806841">
 <ele>1145.09</ele>
 <time>2011-09-29T08:20:01Z</time>
 </trkpt>
 <trkpt lat="47.182487" lon="13.806788">
 <ele>1146.04</ele>
 <time>2011-09-29T08:20:08Z</time>
 </trkpt>
 <trkpt lat="47.182758" lon="13.806846">
 <ele>1147.54</ele>
 <time>2011-09-29T08:20:16Z</time>
 </trkpt>
 <trkpt lat="47.183010" lon="13.806970">
 <ele>1148.96</ele>
 <time>2011-09-29T08:20:24Z</time>
 </trkpt>
 <trkpt lat="47.183334" lon="13.807125">
 <ele>1150.78</ele>
 <time>2011-09-29T08:20:35Z</time>
 </trkpt>
 <trkpt lat="47.183598" lon="13.807109">
 <ele>1151.69</ele>
 <time>2011-09-29T08:20:44Z</time>
 </trkpt>
 <trkpt lat="47.183926" lon="13.807037">
 <ele>1153.37</ele>
 <time>2011-09-29T08:20:55Z</time>
 </trkpt>
 <trkpt lat="47.184258" lon="13.806893">
 <ele>1155.11</ele>
 <time>2011-09-29T08:21:07Z</time>
 </trkpt>
 <trkpt lat="47.184479" lon="13.806759">
 <ele>1156.35</ele>
 <time>2011-09-29T08:21:16Z</time>
 </trkpt>
 <trkpt lat="47.184784" lon="13.806596">
 <ele>1157.73</ele>
 <time>2011-09-29T08:21:28Z</time>
 </trkpt>
 <trkpt lat="47.185028" lon="13.806472">
 <ele>1158.62</ele>
 <time>2011-09-29T08:21:37Z</time>
 </trkpt>
 <trkpt lat="47.185326" lon="13.806336">
 <ele>1159.91</ele>
 <time>2011-09-29T08:21:48Z</time>
 </trkpt>
 <trkpt lat="47.185581" lon="13.806213">
 <ele>1161.33</ele>
 <time>2011-09-29T08:21:58Z</time>
 </trkpt>
 <trkpt lat="47.185768" lon="13.806116">
 <ele>1162.82</ele>
 <time>2011-09-29T08:22:06Z</time>
 </trkpt>
 <trkpt lat="47.185966" lon="13.806024">
 <ele>1164.07</ele>
 <time>2011-09-29T08:22:14Z</time>
 </trkpt>
 <trkpt lat="47.186203" lon="13.805888">
 <ele>1166.29</ele>
 <time>2011-09-29T08:22:25Z</time>
 </trkpt>
 <trkpt lat="47.186375" lon="13.805834">
 <ele>1167.80</ele>
 <time>2011-09-29T08:22:32Z</time>
 </trkpt>
 <trkpt lat="47.186600" lon="13.805806">
 <ele>1168.99</ele>
 <time>2011-09-29T08:22:40Z</time>
 </trkpt>
 <trkpt lat="47.186848" lon="13.805852">
 <ele>1169.83</ele>
 <time>2011-09-29T08:22:49Z</time>
 </trkpt>
 <trkpt lat="47.187046" lon="13.805908">
 <ele>1171.15</ele>
 <time>2011-09-29T08:22:57Z</time>
 </trkpt>
 <trkpt lat="47.187252" lon="13.805976">
 <ele>1172.49</ele>
 <time>2011-09-29T08:23:06Z</time>
 </trkpt>
 <trkpt lat="47.187515" lon="13.806087">
 <ele>1174.81</ele>
 <time>2011-09-29T08:23:18Z</time>
 </trkpt>
 <trkpt lat="47.187725" lon="13.806230">
 <ele>1176.24</ele>
 <time>2011-09-29T08:23:28Z</time>
 </trkpt>
 <trkpt lat="47.187923" lon="13.806391">
 <ele>1177.77</ele>
 <time>2011-09-29T08:23:38Z</time>
 </trkpt>
 <trkpt lat="47.188084" lon="13.806529">
 <ele>1179.58</ele>
 <time>2011-09-29T08:23:47Z</time>
 </trkpt>
 <trkpt lat="47.188248" lon="13.806650">
 <ele>1181.73</ele>
 <time>2011-09-29T08:23:56Z</time>
 </trkpt>
 <trkpt lat="47.188381" lon="13.806727">
 <ele>1183.35</ele>
 <time>2011-09-29T08:24:03Z</time>
 </trkpt>
 <trkpt lat="47.188553" lon="13.806815">
 <ele>1184.52</ele>
 <time>2011-09-29T08:24:12Z</time>
 </trkpt>
 <trkpt lat="47.188717" lon="13.806921">
 <ele>1185.05</ele>
 <time>2011-09-29T08:24:21Z</time>
 </trkpt>
 <trkpt lat="47.188820" lon="13.806940">
 <ele>1185.21</ele>
 <time>2011-09-29T08:24:27Z</time>
 </trkpt>
 <trkpt lat="47.188927" lon="13.806839">
 <ele>1185.82</ele>
 <time>2011-09-29T08:24:35Z</time>
 </trkpt>
 <trkpt lat="47.188992" lon="13.806667">
 <ele>1187.17</ele>
 <time>2011-09-29T08:24:43Z</time>
 </trkpt>
 <trkpt lat="47.189095" lon="13.806581">
 <ele>1188.64</ele>
 <time>2011-09-29T08:24:50Z</time>
 </trkpt>
 <trkpt lat="47.189251" lon="13.806591">
 <ele>1190.00</ele>
 <time>2011-09-29T08:24:58Z</time>
 </trkpt>
 <trkpt lat="47.189396" lon="13.806606">
 <ele>1190.90</ele>
 <time>2011-09-29T08:25:05Z</time>
 </trkpt>
 <trkpt lat="47.189468" lon="13.806603">
 <ele>1191.10</ele>
 <time>2011-09-29T08:25:09Z</time>
 </trkpt>
 <trkpt lat="47.189610" lon="13.806580">
 <ele>1191.90</ele>
 <time>2011-09-29T08:25:16Z</time>
 </trkpt>
 <trkpt lat="47.189735" lon="13.806574">
 <ele>1192.44</ele>
 <time>2011-09-29T08:25:22Z</time>
 </trkpt>
 <trkpt lat="47.189922" lon="13.806511">
 <ele>1193.11</ele>
 <time>2011-09-29T08:25:30Z</time>
 </trkpt>
 <trkpt lat="47.190151" lon="13.806422">
 <ele>1194.26</ele>
 <time>2011-09-29T08:25:40Z</time>
 </trkpt>
 <trkpt lat="47.190392" lon="13.806333">
 <ele>1194.87</ele>
 <time>2011-09-29T08:25:49Z</time>
 </trkpt>
 <trkpt lat="47.190598" lon="13.806311">
 <ele>1195.27</ele>
 <time>2011-09-29T08:25:56Z</time>
 </trkpt>
 <trkpt lat="47.190865" lon="13.806416">
 <ele>1195.30</ele>
 <time>2011-09-29T08:26:05Z</time>
 </trkpt>
 <trkpt lat="47.191120" lon="13.806533">
 <ele>1196.56</ele>
 <time>2011-09-29T08:26:15Z</time>
 </trkpt>
 <trkpt lat="47.191299" lon="13.806589">
 <ele>1197.66</ele>
 <time>2011-09-29T08:26:22Z</time>
 </trkpt>
 <trkpt lat="47.191586" lon="13.806668">
 <ele>1199.13</ele>
 <time>2011-09-29T08:26:33Z</time>
 </trkpt>
 <trkpt lat="47.191692" lon="13.806723">
 <ele>1199.91</ele>
 <time>2011-09-29T08:26:39Z</time>
 </trkpt>
 <trkpt lat="47.191700" lon="13.806730">
 <ele>1200.32</ele>
 <time>2011-09-29T08:26:41Z</time>
 </trkpt>
 <trkpt lat="47.191734" lon="13.806722">
 <ele>1200.40</ele>
 <time>2011-09-29T08:27:33Z</time>
 </trkpt>
 <trkpt lat="47.191753" lon="13.806729">
 <ele>1200.33</ele>
 <time>2011-09-29T08:27:34Z</time>
 </trkpt>
 <trkpt lat="47.191864" lon="13.806773">
 <ele>1200.15</ele>
 <time>2011-09-29T08:27:39Z</time>
 </trkpt>
 <trkpt lat="47.192013" lon="13.806848">
 <ele>1200.32</ele>
 <time>2011-09-29T08:27:45Z</time>
 </trkpt>
 <trkpt lat="47.192219" lon="13.806931">
 <ele>1200.58</ele>
 <time>2011-09-29T08:27:52Z</time>
 </trkpt>
 <trkpt lat="47.192463" lon="13.807028">
 <ele>1201.31</ele>
 <time>2011-09-29T08:28:00Z</time>
 </trkpt>
 <trkpt lat="47.192680" lon="13.807095">
 <ele>1202.04</ele>
 <time>2011-09-29T08:28:07Z</time>
 </trkpt>
 <trkpt lat="47.192913" lon="13.807141">
 <ele>1202.88</ele>
 <time>2011-09-29T08:28:15Z</time>
 </trkpt>
 <trkpt lat="47.193134" lon="13.807179">
 <ele>1203.23</ele>
 <time>2011-09-29T08:28:22Z</time>
 </trkpt>
 <trkpt lat="47.193420" lon="13.807232">
 <ele>1203.34</ele>
 <time>2011-09-29T08:28:30Z</time>
 </trkpt>
 <trkpt lat="47.193871" lon="13.807291">
 <ele>1203.33</ele>
 <time>2011-09-29T08:28:41Z</time>
 </trkpt>
 <trkpt lat="47.194340" lon="13.807257">
 <ele>1203.64</ele>
 <time>2011-09-29T08:28:52Z</time>
 </trkpt>
 <trkpt lat="47.194687" lon="13.807165">
 <ele>1203.28</ele>
 <time>2011-09-29T08:29:00Z</time>
 </trkpt>
 <trkpt lat="47.194931" lon="13.807219">
 <ele>1202.95</ele>
 <time>2011-09-29T08:29:05Z</time>
 </trkpt>
 <trkpt lat="47.195183" lon="13.807377">
 <ele>1202.78</ele>
 <time>2011-09-29T08:29:11Z</time>
 </trkpt>
 <trkpt lat="47.195335" lon="13.807450">
 <ele>1203.98</ele>
 <time>2011-09-29T08:29:16Z</time>
 </trkpt>
 <trkpt lat="47.195526" lon="13.807501">
 <ele>1205.99</ele>
 <time>2011-09-29T08:29:23Z</time>
 </trkpt>
 <trkpt lat="47.195629" lon="13.807563">
 <ele>1207.39</ele>
 <time>2011-09-29T08:29:27Z</time>
 </trkpt>
 <trkpt lat="47.195774" lon="13.807711">
 <ele>1208.91</ele>
 <time>2011-09-29T08:29:33Z</time>
 </trkpt>
 <trkpt lat="47.195854" lon="13.807975">
 <ele>1208.40</ele>
 <time>2011-09-29T08:29:38Z</time>
 </trkpt>
 <trkpt lat="47.195896" lon="13.808191">
 <ele>1207.20</ele>
 <time>2011-09-29T08:29:41Z</time>
 </trkpt>
 <trkpt lat="47.195995" lon="13.808453">
 <ele>1204.81</ele>
 <time>2011-09-29T08:29:45Z</time>
 </trkpt>
 <trkpt lat="47.196148" lon="13.808639">
 <ele>1203.30</ele>
 <time>2011-09-29T08:29:48Z</time>
 </trkpt>
 <trkpt lat="47.196697" lon="13.809028">
 <ele>1199.01</ele>
 <time>2011-09-29T08:29:56Z</time>
 </trkpt>
 <trkpt lat="47.197170" lon="13.809323">
 <ele>1196.83</ele>
 <time>2011-09-29T08:30:03Z</time>
 </trkpt>
 <trkpt lat="47.197357" lon="13.809457">
 <ele>1195.54</ele>
 <time>2011-09-29T08:30:07Z</time>
 </trkpt>
 <trkpt lat="47.197533" lon="13.809702">
 <ele>1194.15</ele>
 <time>2011-09-29T08:30:11Z</time>
 </trkpt>
 <trkpt lat="47.197754" lon="13.809993">
 <ele>1191.41</ele>
 <time>2011-09-29T08:30:16Z</time>
 </trkpt>
 <trkpt lat="47.198021" lon="13.810176">
 <ele>1189.01</ele>
 <time>2011-09-29T08:30:20Z</time>
 </trkpt>
 <trkpt lat="47.198288" lon="13.810187">
 <ele>1187.10</ele>
 <time>2011-09-29T08:30:24Z</time>
 </trkpt>
 <trkpt lat="47.198502" lon="13.810163">
 <ele>1186.69</ele>
 <time>2011-09-29T08:30:28Z</time>
 </trkpt>
 <trkpt lat="47.198597" lon="13.810179">
 <ele>1186.75</ele>
 <time>2011-09-29T08:30:30Z</time>
 </trkpt>
 <trkpt lat="47.198921" lon="13.810319">
 <ele>1187.37</ele>
 <time>2011-09-29T08:30:38Z</time>
 </trkpt>
 <trkpt lat="47.199245" lon="13.810539">
 <ele>1187.79</ele>
 <time>2011-09-29T08:30:47Z</time>
 </trkpt>
 <trkpt lat="47.199352" lon="13.810579">
 <ele>1188.36</ele>
 <time>2011-09-29T08:30:52Z</time>
 </trkpt>
 <trkpt lat="47.199375" lon="13.810577">
 <ele>1188.83</ele>
 <time>2011-09-29T08:30:57Z</time>
 </trkpt>
 <trkpt lat="47.199329" lon="13.810535">
 <ele>1188.56</ele>
 <time>2011-09-29T08:33:21Z</time>
 </trkpt>
 <trkpt lat="47.199329" lon="13.810621">
 <ele>1188.43</ele>
 <time>2011-09-29T08:33:25Z</time>
 </trkpt>
 <trkpt lat="47.199368" lon="13.810684">
 <ele>1188.52</ele>
 <time>2011-09-29T08:33:29Z</time>
 </trkpt>
 <trkpt lat="47.199474" lon="13.810886">
 <ele>1188.47</ele>
 <time>2011-09-29T08:33:36Z</time>
 </trkpt>
 <trkpt lat="47.199699" lon="13.811246">
 <ele>1188.01</ele>
 <time>2011-09-29T08:33:45Z</time>
 </trkpt>
 <trkpt lat="47.199844" lon="13.811469">
 <ele>1188.77</ele>
 <time>2011-09-29T08:33:53Z</time>
 </trkpt>
 <trkpt lat="47.199841" lon="13.811468">
 <ele>1189.10</ele>
 <time>2011-09-29T08:33:55Z</time>
 </trkpt>
 <trkpt lat="47.199886" lon="13.811535">
 <ele>1189.05</ele>
 <time>2011-09-29T08:34:39Z</time>
 </trkpt>
 <trkpt lat="47.199959" lon="13.811701">
 <ele>1188.76</ele>
 <time>2011-09-29T08:34:44Z</time>
 </trkpt>
 <trkpt lat="47.200104" lon="13.811914">
 <ele>1188.83</ele>
 <time>2011-09-29T08:34:50Z</time>
 </trkpt>
 <trkpt lat="47.200249" lon="13.811931">
 <ele>1189.29</ele>
 <time>2011-09-29T08:34:54Z</time>
 </trkpt>
 <trkpt lat="47.200527" lon="13.811885">
 <ele>1190.44</ele>
 <time>2011-09-29T08:35:02Z</time>
 </trkpt>
 <trkpt lat="47.200699" lon="13.811885">
 <ele>1191.40</ele>
 <time>2011-09-29T08:35:07Z</time>
 </trkpt>
 <trkpt lat="47.200836" lon="13.811922">
 <ele>1192.24</ele>
 <time>2011-09-29T08:35:11Z</time>
 </trkpt>
 <trkpt lat="47.201038" lon="13.811971">
 <ele>1192.54</ele>
 <time>2011-09-29T08:35:16Z</time>
 </trkpt>
 <trkpt lat="47.201351" lon="13.812001">
 <ele>1192.09</ele>
 <time>2011-09-29T08:35:23Z</time>
 </trkpt>
 <trkpt lat="47.201626" lon="13.811983">
 <ele>1192.60</ele>
 <time>2011-09-29T08:35:30Z</time>
 </trkpt>
 <trkpt lat="47.201939" lon="13.811887">
 <ele>1193.25</ele>
 <time>2011-09-29T08:35:38Z</time>
 </trkpt>
 <trkpt lat="47.202267" lon="13.811794">
 <ele>1193.31</ele>
 <time>2011-09-29T08:35:46Z</time>
 </trkpt>
 <trkpt lat="47.202534" lon="13.811803">
 <ele>1194.23</ele>
 <time>2011-09-29T08:35:53Z</time>
 </trkpt>
 <trkpt lat="47.202847" lon="13.811883">
 <ele>1193.57</ele>
 <time>2011-09-29T08:36:00Z</time>
 </trkpt>
 <trkpt lat="47.203201" lon="13.811940">
 <ele>1192.61</ele>
 <time>2011-09-29T08:36:07Z</time>
 </trkpt>
 <trkpt lat="47.203579" lon="13.811873">
 <ele>1192.18</ele>
 <time>2011-09-29T08:36:14Z</time>
 </trkpt>
 <trkpt lat="47.203903" lon="13.811879">
 <ele>1191.70</ele>
 <time>2011-09-29T08:36:20Z</time>
 </trkpt>
 <trkpt lat="47.204308" lon="13.811951">
 <ele>1191.63</ele>
 <time>2011-09-29T08:36:28Z</time>
 </trkpt>
 <trkpt lat="47.204906" lon="13.812143">
 <ele>1191.33</ele>
 <time>2011-09-29T08:36:39Z</time>
 </trkpt>
 <trkpt lat="47.205059" lon="13.812157">
 <ele>1191.61</ele>
 <time>2011-09-29T08:36:42Z</time>
 </trkpt>
 <trkpt lat="47.205379" lon="13.812025">
 <ele>1192.51</ele>
 <time>2011-09-29T08:36:49Z</time>
 </trkpt>
 <trkpt lat="47.205460" lon="13.811974">
 <ele>1192.89</ele>
 <time>2011-09-29T08:36:51Z</time>
 </trkpt>
 <trkpt lat="47.205750" lon="13.811791">
 <ele>1194.38</ele>
 <time>2011-09-29T08:36:59Z</time>
 </trkpt>
 <trkpt lat="47.206009" lon="13.811539">
 <ele>1194.20</ele>
 <time>2011-09-29T08:37:06Z</time>
 </trkpt>
 <trkpt lat="47.206200" lon="13.811376">
 <ele>1194.92</ele>
 <time>2011-09-29T08:37:12Z</time>
 </trkpt>
 <trkpt lat="47.206299" lon="13.811262">
 <ele>1195.84</ele>
 <time>2011-09-29T08:37:17Z</time>
 </trkpt>
 <trkpt lat="47.206455" lon="13.811060">
 <ele>1196.46</ele>
 <time>2011-09-29T08:37:23Z</time>
 </trkpt>
 <trkpt lat="47.206654" lon="13.810862">
 <ele>1197.31</ele>
 <time>2011-09-29T08:37:30Z</time>
 </trkpt>
 <trkpt lat="47.206909" lon="13.810711">
 <ele>1198.29</ele>
 <time>2011-09-29T08:37:38Z</time>
 </trkpt>
 <trkpt lat="47.207184" lon="13.810563">
 <ele>1197.85</ele>
 <time>2011-09-29T08:37:45Z</time>
 </trkpt>
 <trkpt lat="47.207344" lon="13.810489">
 <ele>1197.81</ele>
 <time>2011-09-29T08:37:49Z</time>
 </trkpt>
 <trkpt lat="47.207497" lon="13.810487">
 <ele>1198.23</ele>
 <time>2011-09-29T08:37:53Z</time>
 </trkpt>
 <trkpt lat="47.207829" lon="13.810530">
 <ele>1198.98</ele>
 <time>2011-09-29T08:38:02Z</time>
 </trkpt>
 <trkpt lat="47.208099" lon="13.810513">
 <ele>1199.34</ele>
 <time>2011-09-29T08:38:09Z</time>
 </trkpt>
 <trkpt lat="47.208138" lon="13.810498">
 <ele>1199.34</ele>
 <time>2011-09-29T08:38:10Z</time>
 </trkpt>
 <trkpt lat="47.208389" lon="13.810313">
 <ele>1199.74</ele>
 <time>2011-09-29T08:38:17Z</time>
 </trkpt>
 <trkpt lat="47.208580" lon="13.810321">
 <ele>1200.22</ele>
 <time>2011-09-29T08:38:22Z</time>
 </trkpt>
 <trkpt lat="47.208836" lon="13.810239">
 <ele>1201.02</ele>
 <time>2011-09-29T08:38:30Z</time>
 </trkpt>
 <trkpt lat="47.209091" lon="13.810105">
 <ele>1201.69</ele>
 <time>2011-09-29T08:38:37Z</time>
 </trkpt>
 <trkpt lat="47.209343" lon="13.809892">
 <ele>1202.32</ele>
 <time>2011-09-29T08:38:44Z</time>
 </trkpt>
 <trkpt lat="47.209641" lon="13.809757">
 <ele>1202.57</ele>
 <time>2011-09-29T08:38:51Z</time>
 </trkpt>
 <trkpt lat="47.209869" lon="13.809579">
 <ele>1203.87</ele>
 <time>2011-09-29T08:38:58Z</time>
 </trkpt>
 <trkpt lat="47.210136" lon="13.809426">
 <ele>1204.36</ele>
 <time>2011-09-29T08:39:05Z</time>
 </trkpt>
 <trkpt lat="47.210426" lon="13.809206">
 <ele>1204.68</ele>
 <time>2011-09-29T08:39:13Z</time>
 </trkpt>
 <trkpt lat="47.210693" lon="13.809099">
 <ele>1205.27</ele>
 <time>2011-09-29T08:39:20Z</time>
 </trkpt>
 <trkpt lat="47.211090" lon="13.809066">
 <ele>1205.49</ele>
 <time>2011-09-29T08:39:30Z</time>
 </trkpt>
 <trkpt lat="47.211334" lon="13.809115">
 <ele>1206.32</ele>
 <time>2011-09-29T08:39:37Z</time>
 </trkpt>
 <trkpt lat="47.211628" lon="13.809263">
 <ele>1206.83</ele>
 <time>2011-09-29T08:39:45Z</time>
 </trkpt>
 <trkpt lat="47.211838" lon="13.809232">
 <ele>1206.84</ele>
 <time>2011-09-29T08:39:50Z</time>
 </trkpt>
 <trkpt lat="47.211948" lon="13.809044">
 <ele>1206.88</ele>
 <time>2011-09-29T08:39:54Z</time>
 </trkpt>
 <trkpt lat="47.212063" lon="13.808408">
 <ele>1207.60</ele>
 <time>2011-09-29T08:40:05Z</time>
 </trkpt>
 <trkpt lat="47.212193" lon="13.807994">
 <ele>1208.86</ele>
 <time>2011-09-29T08:40:14Z</time>
 </trkpt>
 <trkpt lat="47.212341" lon="13.807793">
 <ele>1210.45</ele>
 <time>2011-09-29T08:40:21Z</time>
 </trkpt>
 <trkpt lat="47.212547" lon="13.807648">
 <ele>1212.18</ele>
 <time>2011-09-29T08:40:29Z</time>
 </trkpt>
 <trkpt lat="47.212715" lon="13.807490">
 <ele>1212.92</ele>
 <time>2011-09-29T08:40:36Z</time>
 </trkpt>
 <trkpt lat="47.212902" lon="13.807240">
 <ele>1213.66</ele>
 <time>2011-09-29T08:40:45Z</time>
 </trkpt>
 <trkpt lat="47.213100" lon="13.807062">
 <ele>1214.45</ele>
 <time>2011-09-29T08:40:53Z</time>
 </trkpt>
 <trkpt lat="47.213299" lon="13.806830">
 <ele>1215.56</ele>
 <time>2011-09-29T08:41:02Z</time>
 </trkpt>
 <trkpt lat="47.213406" lon="13.806570">
 <ele>1216.18</ele>
 <time>2011-09-29T08:41:09Z</time>
 </trkpt>
 <trkpt lat="47.213470" lon="13.806376">
 <ele>1216.23</ele>
 <time>2011-09-29T08:41:14Z</time>
 </trkpt>
 <trkpt lat="47.213631" lon="13.806283">
 <ele>1216.31</ele>
 <time>2011-09-29T08:41:19Z</time>
 </trkpt>
 <trkpt lat="47.213932" lon="13.806188">
 <ele>1216.79</ele>
 <time>2011-09-29T08:41:28Z</time>
 </trkpt>
 <trkpt lat="47.214191" lon="13.806019">
 <ele>1216.91</ele>
 <time>2011-09-29T08:41:36Z</time>
 </trkpt>
 <trkpt lat="47.214413" lon="13.805762">
 <ele>1216.93</ele>
 <time>2011-09-29T08:41:43Z</time>
 </trkpt>
 <trkpt lat="47.214603" lon="13.805433">
 <ele>1216.08</ele>
 <time>2011-09-29T08:41:49Z</time>
 </trkpt>
 <trkpt lat="47.214886" lon="13.805064">
 <ele>1215.44</ele>
 <time>2011-09-29T08:41:57Z</time>
 </trkpt>
 <trkpt lat="47.215092" lon="13.805024">
 <ele>1215.47</ele>
 <time>2011-09-29T08:42:01Z</time>
 </trkpt>
 <trkpt lat="47.215202" lon="13.805174">
 <ele>1215.38</ele>
 <time>2011-09-29T08:42:04Z</time>
 </trkpt>
 <trkpt lat="47.215233" lon="13.805239">
 <ele>1215.29</ele>
 <time>2011-09-29T08:42:05Z</time>
 </trkpt>
 <trkpt lat="47.215336" lon="13.805477">
 <ele>1215.38</ele>
 <time>2011-09-29T08:42:09Z</time>
 </trkpt>
 <trkpt lat="47.215641" lon="13.805868">
 <ele>1216.52</ele>
 <time>2011-09-29T08:42:19Z</time>
 </trkpt>
 <trkpt lat="47.215801" lon="13.806098">
 <ele>1218.13</ele>
 <time>2011-09-29T08:42:26Z</time>
 </trkpt>
 <trkpt lat="47.216011" lon="13.806439">
 <ele>1219.36</ele>
 <time>2011-09-29T08:42:35Z</time>
 </trkpt>
 <trkpt lat="47.216156" lon="13.806802">
 <ele>1219.49</ele>
 <time>2011-09-29T08:42:42Z</time>
 </trkpt>
 <trkpt lat="47.216259" lon="13.807161">
 <ele>1218.54</ele>
 <time>2011-09-29T08:42:47Z</time>
 </trkpt>
 <trkpt lat="47.216408" lon="13.807388">
 <ele>1217.93</ele>
 <time>2011-09-29T08:42:51Z</time>
 </trkpt>
 <trkpt lat="47.216675" lon="13.807640">
 <ele>1216.70</ele>
 <time>2011-09-29T08:42:56Z</time>
 </trkpt>
 <trkpt lat="47.216877" lon="13.807998">
 <ele>1215.35</ele>
 <time>2011-09-29T08:43:01Z</time>
 </trkpt>
 <trkpt lat="47.217094" lon="13.808229">
 <ele>1215.94</ele>
 <time>2011-09-29T08:43:06Z</time>
 </trkpt>
 <trkpt lat="47.217186" lon="13.808256">
 <ele>1216.60</ele>
 <time>2011-09-29T08:43:08Z</time>
 </trkpt>
 <trkpt lat="47.217640" lon="13.808272">
 <ele>1217.63</ele>
 <time>2011-09-29T08:43:17Z</time>
 </trkpt>
 <trkpt lat="47.218117" lon="13.808174">
 <ele>1217.21</ele>
 <time>2011-09-29T08:43:26Z</time>
 </trkpt>
 <trkpt lat="47.218597" lon="13.808125">
 <ele>1216.20</ele>
 <time>2011-09-29T08:43:34Z</time>
 </trkpt>
 <trkpt lat="47.218948" lon="13.807950">
 <ele>1215.96</ele>
 <time>2011-09-29T08:43:40Z</time>
 </trkpt>
 <trkpt lat="47.219341" lon="13.807739">
 <ele>1216.03</ele>
 <time>2011-09-29T08:43:47Z</time>
 </trkpt>
 <trkpt lat="47.219746" lon="13.807563">
 <ele>1217.06</ele>
 <time>2011-09-29T08:43:55Z</time>
 </trkpt>
 <trkpt lat="47.220013" lon="13.807438">
 <ele>1218.82</ele>
 <time>2011-09-29T08:44:02Z</time>
 </trkpt>
 <trkpt lat="47.220352" lon="13.807220">
 <ele>1220.25</ele>
 <time>2011-09-29T08:44:11Z</time>
 </trkpt>
 <trkpt lat="47.220432" lon="13.807160">
 <ele>1220.23</ele>
 <time>2011-09-29T08:44:13Z</time>
 </trkpt>
 <trkpt lat="47.220688" lon="13.806916">
 <ele>1220.02</ele>
 <time>2011-09-29T08:44:19Z</time>
 </trkpt>
 <trkpt lat="47.220894" lon="13.806688">
 <ele>1219.50</ele>
 <time>2011-09-29T08:44:24Z</time>
 </trkpt>
 <trkpt lat="47.221252" lon="13.806462">
 <ele>1218.88</ele>
 <time>2011-09-29T08:44:31Z</time>
 </trkpt>
 <trkpt lat="47.221458" lon="13.806242">
 <ele>1218.27</ele>
 <time>2011-09-29T08:44:35Z</time>
 </trkpt>
 <trkpt lat="47.221706" lon="13.805801">
 <ele>1217.41</ele>
 <time>2011-09-29T08:44:41Z</time>
 </trkpt>
 <trkpt lat="47.221848" lon="13.805253">
 <ele>1217.05</ele>
 <time>2011-09-29T08:44:48Z</time>
 </trkpt>
 <trkpt lat="47.221855" lon="13.805177">
 <ele>1217.04</ele>
 <time>2011-09-29T08:44:49Z</time>
 </trkpt>
 <trkpt lat="47.221928" lon="13.804972">
 <ele>1217.03</ele>
 <time>2011-09-29T08:44:52Z</time>
 </trkpt>
 <trkpt lat="47.222141" lon="13.804831">
 <ele>1217.06</ele>
 <time>2011-09-29T08:44:56Z</time>
 </trkpt>
 <trkpt lat="47.222202" lon="13.804820">
 <ele>1217.02</ele>
 <time>2011-09-29T08:44:57Z</time>
 </trkpt>
 <trkpt lat="47.222347" lon="13.804801">
 <ele>1217.12</ele>
 <time>2011-09-29T08:45:00Z</time>
 </trkpt>
 <trkpt lat="47.222557" lon="13.804875">
 <ele>1217.14</ele>
 <time>2011-09-29T08:45:04Z</time>
 </trkpt>
 <trkpt lat="47.222649" lon="13.804953">
 <ele>1217.14</ele>
 <time>2011-09-29T08:45:06Z</time>
 </trkpt>
 <trkpt lat="47.222984" lon="13.805172">
 <ele>1217.36</ele>
 <time>2011-09-29T08:45:14Z</time>
 </trkpt>
 <trkpt lat="47.223263" lon="13.805337">
 <ele>1218.56</ele>
 <time>2011-09-29T08:45:22Z</time>
 </trkpt>
 <trkpt lat="47.223495" lon="13.805430">
 <ele>1219.72</ele>
 <time>2011-09-29T08:45:29Z</time>
 </trkpt>
 <trkpt lat="47.223724" lon="13.805539">
 <ele>1219.91</ele>
 <time>2011-09-29T08:45:35Z</time>
 </trkpt>
 <trkpt lat="47.223946" lon="13.805664">
 <ele>1220.79</ele>
 <time>2011-09-29T08:45:42Z</time>
 </trkpt>
 <trkpt lat="47.224178" lon="13.805782">
 <ele>1222.11</ele>
 <time>2011-09-29T08:45:49Z</time>
 </trkpt>
 <trkpt lat="47.224430" lon="13.805961">
 <ele>1223.24</ele>
 <time>2011-09-29T08:45:57Z</time>
 </trkpt>
 <trkpt lat="47.224594" lon="13.806098">
 <ele>1224.35</ele>
 <time>2011-09-29T08:46:03Z</time>
 </trkpt>
 <trkpt lat="47.224815" lon="13.806306">
 <ele>1224.93</ele>
 <time>2011-09-29T08:46:11Z</time>
 </trkpt>
 <trkpt lat="47.225033" lon="13.806418">
 <ele>1225.99</ele>
 <time>2011-09-29T08:46:19Z</time>
 </trkpt>
 <trkpt lat="47.225204" lon="13.806396">
 <ele>1226.59</ele>
 <time>2011-09-29T08:46:24Z</time>
 </trkpt>
 <trkpt lat="47.225464" lon="13.806291">
 <ele>1227.08</ele>
 <time>2011-09-29T08:46:31Z</time>
 </trkpt>
 <trkpt lat="47.225689" lon="13.806111">
 <ele>1228.26</ele>
 <time>2011-09-29T08:46:39Z</time>
 </trkpt>
 <trkpt lat="47.225941" lon="13.805981">
 <ele>1229.48</ele>
 <time>2011-09-29T08:46:46Z</time>
 </trkpt>
 <trkpt lat="47.226185" lon="13.805855">
 <ele>1229.35</ele>
 <time>2011-09-29T08:46:52Z</time>
 </trkpt>
 <trkpt lat="47.226475" lon="13.805727">
 <ele>1228.43</ele>
 <time>2011-09-29T08:46:58Z</time>
 </trkpt>
 <trkpt lat="47.226746" lon="13.805598">
 <ele>1227.51</ele>
 <time>2011-09-29T08:47:03Z</time>
 </trkpt>
 <trkpt lat="47.227039" lon="13.805470">
 <ele>1226.51</ele>
 <time>2011-09-29T08:47:08Z</time>
 </trkpt>
 <trkpt lat="47.227306" lon="13.805263">
 <ele>1226.34</ele>
 <time>2011-09-29T08:47:14Z</time>
 </trkpt>
 <trkpt lat="47.227489" lon="13.805160">
 <ele>1227.16</ele>
 <time>2011-09-29T08:47:19Z</time>
 </trkpt>
 <trkpt lat="47.227680" lon="13.805151">
 <ele>1227.65</ele>
 <time>2011-09-29T08:47:24Z</time>
 </trkpt>
 <trkpt lat="47.227787" lon="13.805156">
 <ele>1227.79</ele>
 <time>2011-09-29T08:47:27Z</time>
 </trkpt>
 <trkpt lat="47.227985" lon="13.805156">
 <ele>1227.55</ele>
 <time>2011-09-29T08:47:32Z</time>
 </trkpt>
 <trkpt lat="47.228226" lon="13.805253">
 <ele>1227.76</ele>
 <time>2011-09-29T08:47:39Z</time>
 </trkpt>
 <trkpt lat="47.228317" lon="13.805337">
 <ele>1228.85</ele>
 <time>2011-09-29T08:47:43Z</time>
 </trkpt>
 <trkpt lat="47.228542" lon="13.805489">
 <ele>1230.54</ele>
 <time>2011-09-29T08:47:52Z</time>
 </trkpt>
 <trkpt lat="47.228703" lon="13.805620">
 <ele>1231.91</ele>
 <time>2011-09-29T08:47:59Z</time>
 </trkpt>
 <trkpt lat="47.228817" lon="13.805714">
 <ele>1232.83</ele>
 <time>2011-09-29T08:48:04Z</time>
 </trkpt>
 <trkpt lat="47.229053" lon="13.805818">
 <ele>1234.46</ele>
 <time>2011-09-29T08:48:13Z</time>
 </trkpt>
 <trkpt lat="47.229244" lon="13.805823">
 <ele>1235.49</ele>
 <time>2011-09-29T08:48:21Z</time>
 </trkpt>
 <trkpt lat="47.229347" lon="13.805825">
 <ele>1236.59</ele>
 <time>2011-09-29T08:48:26Z</time>
 </trkpt>
 <trkpt lat="47.229507" lon="13.805821">
 <ele>1238.21</ele>
 <time>2011-09-29T08:48:33Z</time>
 </trkpt>
 <trkpt lat="47.229652" lon="13.805816">
 <ele>1239.10</ele>
 <time>2011-09-29T08:48:39Z</time>
 </trkpt>
 <trkpt lat="47.229736" lon="13.805817">
 <ele>1239.62</ele>
 <time>2011-09-29T08:48:43Z</time>
 </trkpt>
 <trkpt lat="47.229847" lon="13.805829">
 <ele>1240.40</ele>
 <time>2011-09-29T08:48:48Z</time>
 </trkpt>
 <trkpt lat="47.230026" lon="13.805847">
 <ele>1241.29</ele>
 <time>2011-09-29T08:48:55Z</time>
 </trkpt>
 <trkpt lat="47.230183" lon="13.805859">
 <ele>1241.32</ele>
 <time>2011-09-29T08:49:00Z</time>
 </trkpt>
 <trkpt lat="47.230305" lon="13.805884">
 <ele>1241.11</ele>
 <time>2011-09-29T08:49:04Z</time>
 </trkpt>
 <trkpt lat="47.230576" lon="13.805908">
 <ele>1240.35</ele>
 <time>2011-09-29T08:49:11Z</time>
 </trkpt>
 <trkpt lat="47.230888" lon="13.805860">
 <ele>1240.04</ele>
 <time>2011-09-29T08:49:19Z</time>
 </trkpt>
 <trkpt lat="47.231117" lon="13.805829">
 <ele>1240.59</ele>
 <time>2011-09-29T08:49:26Z</time>
 </trkpt>
 <trkpt lat="47.231285" lon="13.805807">
 <ele>1240.90</ele>
 <time>2011-09-29T08:49:31Z</time>
 </trkpt>
 <trkpt lat="47.231388" lon="13.805820">
 <ele>1240.50</ele>
 <time>2011-09-29T08:49:34Z</time>
 </trkpt>
 <trkpt lat="47.231609" lon="13.805880">
 <ele>1239.85</ele>
 <time>2011-09-29T08:49:39Z</time>
 </trkpt>
 <trkpt lat="47.231773" lon="13.805915">
 <ele>1239.87</ele>
 <time>2011-09-29T08:49:45Z</time>
 </trkpt>
 <trkpt lat="47.231922" lon="13.805887">
 <ele>1239.74</ele>
 <time>2011-09-29T08:49:50Z</time>
 </trkpt>
 <trkpt lat="47.232117" lon="13.805834">
 <ele>1239.46</ele>
 <time>2011-09-29T08:49:55Z</time>
 </trkpt>
 <trkpt lat="47.232300" lon="13.805783">
 <ele>1239.09</ele>
 <time>2011-09-29T08:49:59Z</time>
 </trkpt>
 <trkpt lat="47.232697" lon="13.805727">
 <ele>1237.79</ele>
 <time>2011-09-29T08:50:07Z</time>
 </trkpt>
 <trkpt lat="47.232849" lon="13.805695">
 <ele>1237.84</ele>
 <time>2011-09-29T08:50:11Z</time>
 </trkpt>
 <trkpt lat="47.233028" lon="13.805691">
 <ele>1238.95</ele>
 <time>2011-09-29T08:50:16Z</time>
 </trkpt>
 <trkpt lat="47.233204" lon="13.805667">
 <ele>1239.73</ele>
 <time>2011-09-29T08:50:21Z</time>
 </trkpt>
 <trkpt lat="47.233429" lon="13.805657">
 <ele>1240.56</ele>
 <time>2011-09-29T08:50:27Z</time>
 </trkpt>
 <trkpt lat="47.233749" lon="13.805684">
 <ele>1240.71</ele>
 <time>2011-09-29T08:50:35Z</time>
 </trkpt>
 <trkpt lat="47.234043" lon="13.805665">
 <ele>1240.47</ele>
 <time>2011-09-29T08:50:42Z</time>
 </trkpt>
 <trkpt lat="47.234283" lon="13.805687">
 <ele>1239.83</ele>
 <time>2011-09-29T08:50:48Z</time>
 </trkpt>
 <trkpt lat="47.234531" lon="13.805582">
 <ele>1240.70</ele>
 <time>2011-09-29T08:50:55Z</time>
 </trkpt>
 <trkpt lat="47.234676" lon="13.805497">
 <ele>1241.22</ele>
 <time>2011-09-29T08:51:00Z</time>
 </trkpt>
 <trkpt lat="47.234852" lon="13.805318">
 <ele>1241.64</ele>
 <time>2011-09-29T08:51:05Z</time>
 </trkpt>
 <trkpt lat="47.235100" lon="13.805036">
 <ele>1242.07</ele>
 <time>2011-09-29T08:51:13Z</time>
 </trkpt>
 <trkpt lat="47.235313" lon="13.804922">
 <ele>1242.19</ele>
 <time>2011-09-29T08:51:18Z</time>
 </trkpt>
 <trkpt lat="47.235573" lon="13.804764">
 <ele>1242.22</ele>
 <time>2011-09-29T08:51:25Z</time>
 </trkpt>
 <trkpt lat="47.235783" lon="13.804656">
 <ele>1243.32</ele>
 <time>2011-09-29T08:51:31Z</time>
 </trkpt>
 <trkpt lat="47.236000" lon="13.804585">
 <ele>1243.94</ele>
 <time>2011-09-29T08:51:37Z</time>
 </trkpt>
 <trkpt lat="47.236229" lon="13.804575">
 <ele>1244.18</ele>
 <time>2011-09-29T08:51:43Z</time>
 </trkpt>
 <trkpt lat="47.236420" lon="13.804530">
 <ele>1244.41</ele>
 <time>2011-09-29T08:51:48Z</time>
 </trkpt>
 <trkpt lat="47.236591" lon="13.804459">
 <ele>1245.38</ele>
 <time>2011-09-29T08:51:53Z</time>
 </trkpt>
 <trkpt lat="47.236797" lon="13.804383">
 <ele>1245.57</ele>
 <time>2011-09-29T08:51:59Z</time>
 </trkpt>
 <trkpt lat="47.236946" lon="13.804421">
 <ele>1246.10</ele>
 <time>2011-09-29T08:52:04Z</time>
 </trkpt>
 <trkpt lat="47.237118" lon="13.804453">
 <ele>1246.95</ele>
 <time>2011-09-29T08:52:09Z</time>
 </trkpt>
 <trkpt lat="47.237309" lon="13.804523">
 <ele>1247.58</ele>
 <time>2011-09-29T08:52:14Z</time>
 </trkpt>
 <trkpt lat="47.237576" lon="13.804666">
 <ele>1248.19</ele>
 <time>2011-09-29T08:52:20Z</time>
 </trkpt>
 <trkpt lat="47.237778" lon="13.804782">
 <ele>1248.35</ele>
 <time>2011-09-29T08:52:25Z</time>
 </trkpt>
 <trkpt lat="47.238014" lon="13.804842">
 <ele>1249.48</ele>
 <time>2011-09-29T08:52:32Z</time>
 </trkpt>
 <trkpt lat="47.238239" lon="13.804762">
 <ele>1250.16</ele>
 <time>2011-09-29T08:52:39Z</time>
 </trkpt>
 <trkpt lat="47.238358" lon="13.804721">
 <ele>1250.92</ele>
 <time>2011-09-29T08:52:44Z</time>
 </trkpt>
 <trkpt lat="47.238384" lon="13.804700">
 <ele>1251.08</ele>
 <time>2011-09-29T08:52:46Z</time>
 </trkpt>
 <trkpt lat="47.238403" lon="13.804636">
 <ele>1251.20</ele>
 <time>2011-09-29T08:52:51Z</time>
 </trkpt>
 <trkpt lat="47.238461" lon="13.804603">
 <ele>1250.88</ele>
 <time>2011-09-29T08:52:59Z</time>
 </trkpt>
 <trkpt lat="47.238556" lon="13.804541">
 <ele>1250.49</ele>
 <time>2011-09-29T08:53:05Z</time>
 </trkpt>
 <trkpt lat="47.238670" lon="13.804460">
 <ele>1250.35</ele>
 <time>2011-09-29T08:53:10Z</time>
 </trkpt>
 <trkpt lat="47.238667" lon="13.804424">
 <ele>1250.25</ele>
 <time>2011-09-29T08:53:14Z</time>
 </trkpt>
 <trkpt lat="47.238674" lon="13.804417">
 <ele>1250.30</ele>
 <time>2011-09-29T08:53:16Z</time>
 </trkpt>
 <trkpt lat="47.238762" lon="13.804478">
 <ele>1250.81</ele>
 <time>2011-09-29T08:54:15Z</time>
 </trkpt>
 <trkpt lat="47.238766" lon="13.804476">
 <ele>1250.78</ele>
 <time>2011-09-29T08:54:16Z</time>
 </trkpt>
 <trkpt lat="47.238811" lon="13.804247">
 <ele>1250.30</ele>
 <time>2011-09-29T08:54:29Z</time>
 </trkpt>
 <trkpt lat="47.238934" lon="13.804109">
 <ele>1250.32</ele>
 <time>2011-09-29T08:54:34Z</time>
 </trkpt>
 <trkpt lat="47.239140" lon="13.803965">
 <ele>1250.80</ele>
 <time>2011-09-29T08:54:41Z</time>
 </trkpt>
 <trkpt lat="47.239361" lon="13.803795">
 <ele>1251.02</ele>
 <time>2011-09-29T08:54:48Z</time>
 </trkpt>
 <trkpt lat="47.239552" lon="13.803610">
 <ele>1251.19</ele>
 <time>2011-09-29T08:54:54Z</time>
 </trkpt>
 <trkpt lat="47.239609" lon="13.803546">
 <ele>1251.07</ele>
 <time>2011-09-29T08:54:56Z</time>
 </trkpt>
 <trkpt lat="47.239799" lon="13.803421">
 <ele>1251.15</ele>
 <time>2011-09-29T08:55:02Z</time>
 </trkpt>
 <trkpt lat="47.239960" lon="13.803399">
 <ele>1252.00</ele>
 <time>2011-09-29T08:55:07Z</time>
 </trkpt>
 <trkpt lat="47.240139" lon="13.803412">
 <ele>1252.70</ele>
 <time>2011-09-29T08:55:13Z</time>
 </trkpt>
 <trkpt lat="47.240299" lon="13.803427">
 <ele>1252.91</ele>
 <time>2011-09-29T08:55:18Z</time>
 </trkpt>
 <trkpt lat="47.240505" lon="13.803430">
 <ele>1253.13</ele>
 <time>2011-09-29T08:55:23Z</time>
 </trkpt>
 <trkpt lat="47.240650" lon="13.803464">
 <ele>1253.44</ele>
 <time>2011-09-29T08:55:27Z</time>
 </trkpt>
 <trkpt lat="47.240868" lon="13.803545">
 <ele>1253.77</ele>
 <time>2011-09-29T08:55:32Z</time>
 </trkpt>
 <trkpt lat="47.241062" lon="13.803645">
 <ele>1254.24</ele>
 <time>2011-09-29T08:55:38Z</time>
 </trkpt>
 <trkpt lat="47.241291" lon="13.803783">
 <ele>1255.12</ele>
 <time>2011-09-29T08:55:46Z</time>
 </trkpt>
 <trkpt lat="47.241455" lon="13.803882">
 <ele>1255.67</ele>
 <time>2011-09-29T08:55:52Z</time>
 </trkpt>
 <trkpt lat="47.241650" lon="13.803945">
 <ele>1256.40</ele>
 <time>2011-09-29T08:55:59Z</time>
 </trkpt>
 <trkpt lat="47.241764" lon="13.803960">
 <ele>1257.04</ele>
 <time>2011-09-29T08:56:04Z</time>
 </trkpt>
 <trkpt lat="47.241764" lon="13.803962">
 <ele>1257.18</ele>
 <time>2011-09-29T08:56:05Z</time>
 </trkpt>
 <trkpt lat="47.241837" lon="13.803998">
 <ele>1257.34</ele>
 <time>2011-09-29T08:56:12Z</time>
 </trkpt>
 <trkpt lat="47.241882" lon="13.803994">
 <ele>1257.47</ele>
 <time>2011-09-29T08:56:16Z</time>
 </trkpt>
 <trkpt lat="47.241943" lon="13.803956">
 <ele>1257.98</ele>
 <time>2011-09-29T08:56:33Z</time>
 </trkpt>
 <trkpt lat="47.242039" lon="13.803938">
 <ele>1258.69</ele>
 <time>2011-09-29T08:56:53Z</time>
 </trkpt>
 <trkpt lat="47.242111" lon="13.803974">
 <ele>1258.96</ele>
 <time>2011-09-29T08:56:59Z</time>
 </trkpt>
 <trkpt lat="47.242142" lon="13.803979">
 <ele>1259.19</ele>
 <time>2011-09-29T08:57:01Z</time>
 </trkpt>
 <trkpt lat="47.242252" lon="13.804022">
 <ele>1260.07</ele>
 <time>2011-09-29T08:57:09Z</time>
 </trkpt>
 <trkpt lat="47.242313" lon="13.804038">
 <ele>1260.43</ele>
 <time>2011-09-29T08:57:12Z</time>
 </trkpt>
 <trkpt lat="47.242409" lon="13.804065">
 <ele>1261.44</ele>
 <time>2011-09-29T08:57:18Z</time>
 </trkpt>
 <trkpt lat="47.242527" lon="13.804101">
 <ele>1262.23</ele>
 <time>2011-09-29T08:57:23Z</time>
 </trkpt>
 <trkpt lat="47.242687" lon="13.804121">
 <ele>1263.48</ele>
 <time>2011-09-29T08:57:30Z</time>
 </trkpt>
 <trkpt lat="47.242844" lon="13.804122">
 <ele>1264.32</ele>
 <time>2011-09-29T08:57:38Z</time>
 </trkpt>
 <trkpt lat="47.242973" lon="13.804146">
 <ele>1265.65</ele>
 <time>2011-09-29T08:57:46Z</time>
 </trkpt>
 <trkpt lat="47.243084" lon="13.804169">
 <ele>1266.73</ele>
 <time>2011-09-29T08:57:53Z</time>
 </trkpt>
 <trkpt lat="47.243172" lon="13.804192">
 <ele>1267.84</ele>
 <time>2011-09-29T08:57:58Z</time>
 </trkpt>
 <trkpt lat="47.243324" lon="13.804203">
 <ele>1270.04</ele>
 <time>2011-09-29T08:58:07Z</time>
 </trkpt>
 <trkpt lat="47.243465" lon="13.804223">
 <ele>1271.65</ele>
 <time>2011-09-29T08:58:16Z</time>
 </trkpt>
 <trkpt lat="47.243599" lon="13.804267">
 <ele>1273.42</ele>
 <time>2011-09-29T08:58:25Z</time>
 </trkpt>
 <trkpt lat="47.243698" lon="13.804322">
 <ele>1274.30</ele>
 <time>2011-09-29T08:58:31Z</time>
 </trkpt>
 <trkpt lat="47.243843" lon="13.804397">
 <ele>1275.15</ele>
 <time>2011-09-29T08:58:40Z</time>
 </trkpt>
 <trkpt lat="47.243977" lon="13.804454">
 <ele>1276.28</ele>
 <time>2011-09-29T08:58:48Z</time>
 </trkpt>
 <trkpt lat="47.244152" lon="13.804509">
 <ele>1276.31</ele>
 <time>2011-09-29T08:58:55Z</time>
 </trkpt>
 <trkpt lat="47.244324" lon="13.804512">
 <ele>1275.64</ele>
 <time>2011-09-29T08:59:01Z</time>
 </trkpt>
 <trkpt lat="47.244503" lon="13.804461">
 <ele>1276.43</ele>
 <time>2011-09-29T08:59:09Z</time>
 </trkpt>
 <trkpt lat="47.244686" lon="13.804458">
 <ele>1277.81</ele>
 <time>2011-09-29T08:59:18Z</time>
 </trkpt>
 <trkpt lat="47.244831" lon="13.804477">
 <ele>1278.58</ele>
 <time>2011-09-29T08:59:25Z</time>
 </trkpt>
 <trkpt lat="47.245029" lon="13.804523">
 <ele>1279.62</ele>
 <time>2011-09-29T08:59:34Z</time>
 </trkpt>
 <trkpt lat="47.245213" lon="13.804533">
 <ele>1280.15</ele>
 <time>2011-09-29T08:59:42Z</time>
 </trkpt>
 <trkpt lat="47.245403" lon="13.804494">
 <ele>1280.40</ele>
 <time>2011-09-29T08:59:49Z</time>
 </trkpt>
 <trkpt lat="47.245541" lon="13.804426">
 <ele>1280.01</ele>
 <time>2011-09-29T08:59:53Z</time>
 </trkpt>
 <trkpt lat="47.245811" lon="13.804160">
 <ele>1278.92</ele>
 <time>2011-09-29T09:00:00Z</time>
 </trkpt>
 <trkpt lat="47.246006" lon="13.803995">
 <ele>1278.12</ele>
 <time>2011-09-29T09:00:05Z</time>
 </trkpt>
 <trkpt lat="47.246197" lon="13.803808">
 <ele>1279.16</ele>
 <time>2011-09-29T09:00:12Z</time>
 </trkpt>
 <trkpt lat="47.246342" lon="13.803603">
 <ele>1280.63</ele>
 <time>2011-09-29T09:00:20Z</time>
 </trkpt>
 <trkpt lat="47.246433" lon="13.803478">
 <ele>1281.64</ele>
 <time>2011-09-29T09:00:27Z</time>
 </trkpt>
 <trkpt lat="47.246536" lon="13.803404">
 <ele>1282.48</ele>
 <time>2011-09-29T09:00:33Z</time>
 </trkpt>
 <trkpt lat="47.246655" lon="13.803368">
 <ele>1283.24</ele>
 <time>2011-09-29T09:00:39Z</time>
 </trkpt>
 <trkpt lat="47.246803" lon="13.803339">
 <ele>1284.12</ele>
 <time>2011-09-29T09:00:46Z</time>
 </trkpt>
 <trkpt lat="47.246922" lon="13.803325">
 <ele>1285.01</ele>
 <time>2011-09-29T09:00:52Z</time>
 </trkpt>
 <trkpt lat="47.247105" lon="13.803326">
 <ele>1286.72</ele>
 <time>2011-09-29T09:01:01Z</time>
 </trkpt>
 <trkpt lat="47.247257" lon="13.803370">
 <ele>1287.10</ele>
 <time>2011-09-29T09:01:08Z</time>
 </trkpt>
 <trkpt lat="47.247490" lon="13.803477">
 <ele>1286.44</ele>
 <time>2011-09-29T09:01:15Z</time>
 </trkpt>
 <trkpt lat="47.247818" lon="13.803590">
 <ele>1285.83</ele>
 <time>2011-09-29T09:01:24Z</time>
 </trkpt>
 <trkpt lat="47.248093" lon="13.803537">
 <ele>1286.18</ele>
 <time>2011-09-29T09:01:32Z</time>
 </trkpt>
 <trkpt lat="47.248283" lon="13.803494">
 <ele>1286.46</ele>
 <time>2011-09-29T09:01:39Z</time>
 </trkpt>
 <trkpt lat="47.248508" lon="13.803454">
 <ele>1286.26</ele>
 <time>2011-09-29T09:01:45Z</time>
 </trkpt>
 <trkpt lat="47.248848" lon="13.803441">
 <ele>1285.61</ele>
 <time>2011-09-29T09:01:53Z</time>
 </trkpt>
 <trkpt lat="47.249050" lon="13.803519">
 <ele>1286.26</ele>
 <time>2011-09-29T09:01:59Z</time>
 </trkpt>
 <trkpt lat="47.249218" lon="13.803689">
 <ele>1286.79</ele>
 <time>2011-09-29T09:02:05Z</time>
 </trkpt>
 <trkpt lat="47.249371" lon="13.803826">
 <ele>1288.06</ele>
 <time>2011-09-29T09:02:11Z</time>
 </trkpt>
 <trkpt lat="47.249546" lon="13.803921">
 <ele>1289.13</ele>
 <time>2011-09-29T09:02:17Z</time>
 </trkpt>
 <trkpt lat="47.249790" lon="13.803996">
 <ele>1289.41</ele>
 <time>2011-09-29T09:02:24Z</time>
 </trkpt>
 <trkpt lat="47.250065" lon="13.803986">
 <ele>1289.52</ele>
 <time>2011-09-29T09:02:32Z</time>
 </trkpt>
 <trkpt lat="47.250248" lon="13.804038">
 <ele>1289.54</ele>
 <time>2011-09-29T09:02:37Z</time>
 </trkpt>
 <trkpt lat="47.250439" lon="13.804004">
 <ele>1291.32</ele>
 <time>2011-09-29T09:02:45Z</time>
 </trkpt>
 <trkpt lat="47.250614" lon="13.803948">
 <ele>1292.69</ele>
 <time>2011-09-29T09:02:53Z</time>
 </trkpt>
 <trkpt lat="47.250862" lon="13.803917">
 <ele>1294.09</ele>
 <time>2011-09-29T09:03:04Z</time>
 </trkpt>
 <trkpt lat="47.251053" lon="13.803849">
 <ele>1294.61</ele>
 <time>2011-09-29T09:03:11Z</time>
 </trkpt>
 <trkpt lat="47.251228" lon="13.803709">
 <ele>1294.73</ele>
 <time>2011-09-29T09:03:17Z</time>
 </trkpt>
 <trkpt lat="47.251354" lon="13.803569">
 <ele>1294.79</ele>
 <time>2011-09-29T09:03:22Z</time>
 </trkpt>
 <trkpt lat="47.251553" lon="13.803449">
 <ele>1294.94</ele>
 <time>2011-09-29T09:03:28Z</time>
 </trkpt>
 <trkpt lat="47.251736" lon="13.803386">
 <ele>1295.14</ele>
 <time>2011-09-29T09:03:34Z</time>
 </trkpt>
 <trkpt lat="47.251984" lon="13.803351">
 <ele>1295.32</ele>
 <time>2011-09-29T09:03:40Z</time>
 </trkpt>
 <trkpt lat="47.252026" lon="13.803330">
 <ele>1295.24</ele>
 <time>2011-09-29T09:03:45Z</time>
 </trkpt>
 <trkpt lat="47.252075" lon="13.803302">
 <ele>1295.10</ele>
 <time>2011-09-29T09:03:50Z</time>
 </trkpt>
 <trkpt lat="47.252178" lon="13.803233">
 <ele>1295.66</ele>
 <time>2011-09-29T09:03:58Z</time>
 </trkpt>
 <trkpt lat="47.252338" lon="13.803215">
 <ele>1296.53</ele>
 <time>2011-09-29T09:04:05Z</time>
 </trkpt>
 <trkpt lat="47.252472" lon="13.803246">
 <ele>1297.26</ele>
 <time>2011-09-29T09:04:11Z</time>
 </trkpt>
 <trkpt lat="47.252571" lon="13.803290">
 <ele>1298.58</ele>
 <time>2011-09-29T09:04:18Z</time>
 </trkpt>
 <trkpt lat="47.252697" lon="13.803364">
 <ele>1299.45</ele>
 <time>2011-09-29T09:04:25Z</time>
 </trkpt>
 <trkpt lat="47.252750" lon="13.803387">
 <ele>1299.80</ele>
 <time>2011-09-29T09:04:28Z</time>
 </trkpt>
 <trkpt lat="47.252865" lon="13.803344">
 <ele>1300.29</ele>
 <time>2011-09-29T09:04:33Z</time>
 </trkpt>
 <trkpt lat="47.253044" lon="13.803225">
 <ele>1301.10</ele>
 <time>2011-09-29T09:04:39Z</time>
 </trkpt>
 <trkpt lat="47.253220" lon="13.803120">
 <ele>1301.94</ele>
 <time>2011-09-29T09:04:45Z</time>
 </trkpt>
 <trkpt lat="47.253323" lon="13.803056">
 <ele>1302.39</ele>
 <time>2011-09-29T09:04:50Z</time>
 </trkpt>
 <trkpt lat="47.253433" lon="13.803064">
 <ele>1302.81</ele>
 <time>2011-09-29T09:04:57Z</time>
 </trkpt>
 <trkpt lat="47.253536" lon="13.803075">
 <ele>1303.35</ele>
 <time>2011-09-29T09:05:02Z</time>
 </trkpt>
 <trkpt lat="47.253696" lon="13.803064">
 <ele>1304.07</ele>
 <time>2011-09-29T09:05:07Z</time>
 </trkpt>
 <trkpt lat="47.253834" lon="13.803022">
 <ele>1304.91</ele>
 <time>2011-09-29T09:05:13Z</time>
 </trkpt>
 <trkpt lat="47.254005" lon="13.802967">
 <ele>1305.90</ele>
 <time>2011-09-29T09:05:20Z</time>
 </trkpt>
 <trkpt lat="47.254108" lon="13.802927">
 <ele>1306.48</ele>
 <time>2011-09-29T09:05:25Z</time>
 </trkpt>
 <trkpt lat="47.254196" lon="13.802928">
 <ele>1307.18</ele>
 <time>2011-09-29T09:05:31Z</time>
 </trkpt>
 <trkpt lat="47.254234" lon="13.802967">
 <ele>1307.46</ele>
 <time>2011-09-29T09:05:35Z</time>
 </trkpt>
 <trkpt lat="47.254326" lon="13.803009">
 <ele>1307.72</ele>
 <time>2011-09-29T09:05:41Z</time>
 </trkpt>
 <trkpt lat="47.254387" lon="13.802989">
 <ele>1307.63</ele>
 <time>2011-09-29T09:05:47Z</time>
 </trkpt>
 <trkpt lat="47.254360" lon="13.803001">
 <ele>1307.87</ele>
 <time>2011-09-29T09:05:51Z</time>
 </trkpt>
 <trkpt lat="47.254314" lon="13.803019">
 <ele>1307.70</ele>
 <time>2011-09-29T09:05:58Z</time>
 </trkpt>
 <trkpt lat="47.254242" lon="13.803077">
 <ele>1307.40</ele>
 <time>2011-09-29T09:06:08Z</time>
 </trkpt>
 <trkpt lat="47.254265" lon="13.803188">
 <ele>1307.63</ele>
 <time>2011-09-29T09:06:15Z</time>
 </trkpt>
 <trkpt lat="47.254330" lon="13.803265">
 <ele>1308.65</ele>
 <time>2011-09-29T09:06:22Z</time>
 </trkpt>
 <trkpt lat="47.254421" lon="13.803278">
 <ele>1310.07</ele>
 <time>2011-09-29T09:06:29Z</time>
 </trkpt>
 <trkpt lat="47.254524" lon="13.803225">
 <ele>1311.19</ele>
 <time>2011-09-29T09:06:36Z</time>
 </trkpt>
 <trkpt lat="47.254620" lon="13.803125">
 <ele>1312.38</ele>
 <time>2011-09-29T09:06:43Z</time>
 </trkpt>
 <trkpt lat="47.254681" lon="13.803041">
 <ele>1312.45</ele>
 <time>2011-09-29T09:06:47Z</time>
 </trkpt>
 <trkpt lat="47.254726" lon="13.802937">
 <ele>1312.84</ele>
 <time>2011-09-29T09:06:52Z</time>
 </trkpt>
 <trkpt lat="47.254738" lon="13.802879">
 <ele>1313.49</ele>
 <time>2011-09-29T09:06:55Z</time>
 </trkpt>
 <trkpt lat="47.254845" lon="13.802795">
 <ele>1314.92</ele>
 <time>2011-09-29T09:07:04Z</time>
 </trkpt>
 <trkpt lat="47.254848" lon="13.802793">
 <ele>1315.41</ele>
 <time>2011-09-29T09:07:06Z</time>
 </trkpt>
 <trkpt lat="47.254841" lon="13.802752">
 <ele>1315.66</ele>
 <time>2011-09-29T09:07:17Z</time>
 </trkpt>
 <trkpt lat="47.254894" lon="13.802691">
 <ele>1317.54</ele>
 <time>2011-09-29T09:08:58Z</time>
 </trkpt>
 <trkpt lat="47.254902" lon="13.802687">
 <ele>1317.66</ele>
 <time>2011-09-29T09:08:59Z</time>
 </trkpt>
 <trkpt lat="47.254948" lon="13.802666">
 <ele>1318.15</ele>
 <time>2011-09-29T09:09:04Z</time>
 </trkpt>
 <trkpt lat="47.255043" lon="13.802609">
 <ele>1319.77</ele>
 <time>2011-09-29T09:09:14Z</time>
 </trkpt>
 <trkpt lat="47.255116" lon="13.802553">
 <ele>1321.13</ele>
 <time>2011-09-29T09:09:21Z</time>
 </trkpt>
 <trkpt lat="47.255184" lon="13.802502">
 <ele>1322.32</ele>
 <time>2011-09-29T09:09:27Z</time>
 </trkpt>
 <trkpt lat="47.255260" lon="13.802448">
 <ele>1323.38</ele>
 <time>2011-09-29T09:09:34Z</time>
 </trkpt>
 <trkpt lat="47.255299" lon="13.802409">
 <ele>1324.64</ele>
 <time>2011-09-29T09:09:40Z</time>
 </trkpt>
 <trkpt lat="47.255360" lon="13.802356">
 <ele>1325.74</ele>
 <time>2011-09-29T09:09:52Z</time>
 </trkpt>
 <trkpt lat="47.255440" lon="13.802313">
 <ele>1327.08</ele>
 <time>2011-09-29T09:10:01Z</time>
 </trkpt>
 <trkpt lat="47.255505" lon="13.802259">
 <ele>1329.51</ele>
 <time>2011-09-29T09:10:12Z</time>
 </trkpt>
 <trkpt lat="47.255543" lon="13.802235">
 <ele>1330.74</ele>
 <time>2011-09-29T09:10:18Z</time>
 </trkpt>
 <trkpt lat="47.255611" lon="13.802215">
 <ele>1332.41</ele>
 <time>2011-09-29T09:10:28Z</time>
 </trkpt>
 <trkpt lat="47.255688" lon="13.802182">
 <ele>1334.00</ele>
 <time>2011-09-29T09:10:37Z</time>
 </trkpt>
 <trkpt lat="47.255783" lon="13.802168">
 <ele>1335.89</ele>
 <time>2011-09-29T09:10:47Z</time>
 </trkpt>
 <trkpt lat="47.255894" lon="13.802150">
 <ele>1337.29</ele>
 <time>2011-09-29T09:10:56Z</time>
 </trkpt>
 <trkpt lat="47.255993" lon="13.802154">
 <ele>1339.12</ele>
 <time>2011-09-29T09:11:06Z</time>
 </trkpt>
 <trkpt lat="47.256088" lon="13.802155">
 <ele>1340.66</ele>
 <time>2011-09-29T09:11:16Z</time>
 </trkpt>
 <trkpt lat="47.256180" lon="13.802139">
 <ele>1342.45</ele>
 <time>2011-09-29T09:11:26Z</time>
 </trkpt>
 <trkpt lat="47.256256" lon="13.802121">
 <ele>1344.01</ele>
 <time>2011-09-29T09:11:35Z</time>
 </trkpt>
 <trkpt lat="47.256351" lon="13.802107">
 <ele>1345.36</ele>
 <time>2011-09-29T09:11:45Z</time>
 </trkpt>
 <trkpt lat="47.256470" lon="13.802101">
 <ele>1347.48</ele>
 <time>2011-09-29T09:11:57Z</time>
 </trkpt>
 <trkpt lat="47.256523" lon="13.802101">
 <ele>1348.79</ele>
 <time>2011-09-29T09:12:05Z</time>
 </trkpt>
 <trkpt lat="47.256618" lon="13.802070">
 <ele>1350.61</ele>
 <time>2011-09-29T09:12:16Z</time>
 </trkpt>
 <trkpt lat="47.256649" lon="13.802048">
 <ele>1351.39</ele>
 <time>2011-09-29T09:12:23Z</time>
 </trkpt>
 <trkpt lat="47.256702" lon="13.802018">
 <ele>1351.45</ele>
 <time>2011-09-29T09:12:32Z</time>
 </trkpt>
 <trkpt lat="47.256752" lon="13.801990">
 <ele>1352.85</ele>
 <time>2011-09-29T09:12:41Z</time>
 </trkpt>
 <trkpt lat="47.256824" lon="13.801959">
 <ele>1354.18</ele>
 <time>2011-09-29T09:12:49Z</time>
 </trkpt>
 <trkpt lat="47.256882" lon="13.801919">
 <ele>1355.43</ele>
 <time>2011-09-29T09:12:57Z</time>
 </trkpt>
 <trkpt lat="47.256954" lon="13.801895">
 <ele>1357.21</ele>
 <time>2011-09-29T09:13:06Z</time>
 </trkpt>
 <trkpt lat="47.257076" lon="13.801900">
 <ele>1358.58</ele>
 <time>2011-09-29T09:13:16Z</time>
 </trkpt>
 <trkpt lat="47.257118" lon="13.801908">
 <ele>1359.29</ele>
 <time>2011-09-29T09:13:23Z</time>
 </trkpt>
 <trkpt lat="47.257172" lon="13.801906">
 <ele>1359.23</ele>
 <time>2011-09-29T09:13:29Z</time>
 </trkpt>
 <trkpt lat="47.257240" lon="13.801894">
 <ele>1359.49</ele>
 <time>2011-09-29T09:13:34Z</time>
 </trkpt>
 <trkpt lat="47.257359" lon="13.801857">
 <ele>1360.29</ele>
 <time>2011-09-29T09:13:42Z</time>
 </trkpt>
 <trkpt lat="47.257492" lon="13.801827">
 <ele>1361.25</ele>
 <time>2011-09-29T09:13:52Z</time>
 </trkpt>
 <trkpt lat="47.257545" lon="13.801818">
 <ele>1361.61</ele>
 <time>2011-09-29T09:13:56Z</time>
 </trkpt>
 <trkpt lat="47.257591" lon="13.801800">
 <ele>1362.23</ele>
 <time>2011-09-29T09:14:02Z</time>
 </trkpt>
 <trkpt lat="47.257629" lon="13.801778">
 <ele>1362.11</ele>
 <time>2011-09-29T09:14:07Z</time>
 </trkpt>
 <trkpt lat="47.257694" lon="13.801757">
 <ele>1361.96</ele>
 <time>2011-09-29T09:14:13Z</time>
 </trkpt>
 <trkpt lat="47.257702" lon="13.801752">
 <ele>1361.91</ele>
 <time>2011-09-29T09:14:15Z</time>
 </trkpt>
 <trkpt lat="47.257771" lon="13.801688">
 <ele>1361.78</ele>
 <time>2011-09-29T09:14:22Z</time>
 </trkpt>
 <trkpt lat="47.257797" lon="13.801673">
 <ele>1361.41</ele>
 <time>2011-09-29T09:14:28Z</time>
 </trkpt>
 <trkpt lat="47.257763" lon="13.801683">
 <ele>1362.00</ele>
 <time>2011-09-29T09:16:00Z</time>
 </trkpt>
 <trkpt lat="47.257736" lon="13.801713">
 <ele>1362.13</ele>
 <time>2011-09-29T09:16:03Z</time>
 </trkpt>
 <trkpt lat="47.257626" lon="13.801796">
 <ele>1362.58</ele>
 <time>2011-09-29T09:16:11Z</time>
 </trkpt>
 <trkpt lat="47.257465" lon="13.801858">
 <ele>1363.10</ele>
 <time>2011-09-29T09:16:19Z</time>
 </trkpt>
 <trkpt lat="47.257355" lon="13.801876">
 <ele>1362.65</ele>
 <time>2011-09-29T09:16:24Z</time>
 </trkpt>
 <trkpt lat="47.257172" lon="13.801869">
 <ele>1361.11</ele>
 <time>2011-09-29T09:16:30Z</time>
 </trkpt>
 <trkpt lat="47.256977" lon="13.801844">
 <ele>1359.77</ele>
 <time>2011-09-29T09:16:37Z</time>
 </trkpt>
 <trkpt lat="47.256802" lon="13.801929">
 <ele>1358.07</ele>
 <time>2011-09-29T09:16:44Z</time>
 </trkpt>
 <trkpt lat="47.256668" lon="13.802024">
 <ele>1355.33</ele>
 <time>2011-09-29T09:16:52Z</time>
 </trkpt>
 <trkpt lat="47.256531" lon="13.802096">
 <ele>1352.66</ele>
 <time>2011-09-29T09:17:00Z</time>
 </trkpt>
 <trkpt lat="47.256397" lon="13.802101">
 <ele>1350.55</ele>
 <time>2011-09-29T09:17:07Z</time>
 </trkpt>
 <trkpt lat="47.256222" lon="13.802127">
 <ele>1347.18</ele>
 <time>2011-09-29T09:17:16Z</time>
 </trkpt>
 <trkpt lat="47.256050" lon="13.802158">
 <ele>1344.27</ele>
 <time>2011-09-29T09:17:24Z</time>
 </trkpt>
 <trkpt lat="47.255886" lon="13.802153">
 <ele>1341.25</ele>
 <time>2011-09-29T09:17:31Z</time>
 </trkpt>
 <trkpt lat="47.255726" lon="13.802188">
 <ele>1338.16</ele>
 <time>2011-09-29T09:17:38Z</time>
 </trkpt>
 <trkpt lat="47.255566" lon="13.802269">
 <ele>1335.12</ele>
 <time>2011-09-29T09:17:45Z</time>
 </trkpt>
 <trkpt lat="47.255424" lon="13.802346">
 <ele>1332.02</ele>
 <time>2011-09-29T09:17:52Z</time>
 </trkpt>
 <trkpt lat="47.255283" lon="13.802433">
 <ele>1329.22</ele>
 <time>2011-09-29T09:17:59Z</time>
 </trkpt>
 <trkpt lat="47.255119" lon="13.802559">
 <ele>1326.04</ele>
 <time>2011-09-29T09:18:07Z</time>
 </trkpt>
 <trkpt lat="47.254967" lon="13.802667">
 <ele>1323.51</ele>
 <time>2011-09-29T09:18:14Z</time>
 </trkpt>
 <trkpt lat="47.254772" lon="13.802797">
 <ele>1320.65</ele>
 <time>2011-09-29T09:18:22Z</time>
 </trkpt>
 <trkpt lat="47.254654" lon="13.802991">
 <ele>1318.51</ele>
 <time>2011-09-29T09:18:27Z</time>
 </trkpt>
 <trkpt lat="47.254501" lon="13.803188">
 <ele>1316.87</ele>
 <time>2011-09-29T09:18:32Z</time>
 </trkpt>
 <trkpt lat="47.254353" lon="13.803233">
 <ele>1315.95</ele>
 <time>2011-09-29T09:18:37Z</time>
 </trkpt>
 <trkpt lat="47.254211" lon="13.803165">
 <ele>1314.50</ele>
 <time>2011-09-29T09:18:43Z</time>
 </trkpt>
 <trkpt lat="47.254166" lon="13.803041">
 <ele>1313.03</ele>
 <time>2011-09-29T09:18:48Z</time>
 </trkpt>
 <trkpt lat="47.254166" lon="13.803036">
 <ele>1312.68</ele>
 <time>2011-09-29T09:18:49Z</time>
 </trkpt>
 <trkpt lat="47.254169" lon="13.803013">
 <ele>1312.34</ele>
 <time>2011-09-29T09:18:55Z</time>
 </trkpt>
 <trkpt lat="47.254169" lon="13.803014">
 <ele>1312.15</ele>
 <time>2011-09-29T09:18:56Z</time>
 </trkpt>
 <trkpt lat="47.254116" lon="13.803024">
 <ele>1312.61</ele>
 <time>2011-09-29T09:19:08Z</time>
 </trkpt>
 <trkpt lat="47.254112" lon="13.803019">
 <ele>1312.62</ele>
 <time>2011-09-29T09:19:09Z</time>
 </trkpt>
 <trkpt lat="47.254105" lon="13.803022">
 <ele>1312.36</ele>
 <time>2011-09-29T09:19:14Z</time>
 </trkpt>
 <trkpt lat="47.254044" lon="13.802981">
 <ele>1312.05</ele>
 <time>2011-09-29T09:19:27Z</time>
 </trkpt>
 <trkpt lat="47.253887" lon="13.803030">
 <ele>1311.17</ele>
 <time>2011-09-29T09:19:33Z</time>
 </trkpt>
 <trkpt lat="47.253651" lon="13.803093">
 <ele>1310.07</ele>
 <time>2011-09-29T09:19:38Z</time>
 </trkpt>
 <trkpt lat="47.253460" lon="13.803086">
 <ele>1308.40</ele>
 <time>2011-09-29T09:19:42Z</time>
 </trkpt>
 <trkpt lat="47.253326" lon="13.803070">
 <ele>1307.21</ele>
 <time>2011-09-29T09:19:45Z</time>
 </trkpt>
 <trkpt lat="47.253109" lon="13.803137">
 <ele>1306.26</ele>
 <time>2011-09-29T09:19:49Z</time>
 </trkpt>
 <trkpt lat="47.252922" lon="13.803318">
 <ele>1305.55</ele>
 <time>2011-09-29T09:19:53Z</time>
 </trkpt>
 <trkpt lat="47.252754" lon="13.803361">
 <ele>1304.84</ele>
 <time>2011-09-29T09:19:57Z</time>
 </trkpt>
 <trkpt lat="47.252655" lon="13.803339">
 <ele>1304.65</ele>
 <time>2011-09-29T09:19:59Z</time>
 </trkpt>
 <trkpt lat="47.252361" lon="13.803200">
 <ele>1303.39</ele>
 <time>2011-09-29T09:20:05Z</time>
 </trkpt>
 <trkpt lat="47.251980" lon="13.803258">
 <ele>1300.72</ele>
 <time>2011-09-29T09:20:11Z</time>
 </trkpt>
 <trkpt lat="47.251602" lon="13.803374">
 <ele>1298.72</ele>
 <time>2011-09-29T09:20:17Z</time>
 </trkpt>
 <trkpt lat="47.251503" lon="13.803420">
 <ele>1298.59</ele>
 <time>2011-09-29T09:20:19Z</time>
 </trkpt>
 <trkpt lat="47.251251" lon="13.803619">
 <ele>1298.90</ele>
 <time>2011-09-29T09:20:25Z</time>
 </trkpt>
 <trkpt lat="47.251122" lon="13.803779">
 <ele>1299.09</ele>
 <time>2011-09-29T09:20:29Z</time>
 </trkpt>
 <trkpt lat="47.250980" lon="13.803891">
 <ele>1299.06</ele>
 <time>2011-09-29T09:20:33Z</time>
 </trkpt>
 <trkpt lat="47.250904" lon="13.803917">
 <ele>1299.13</ele>
 <time>2011-09-29T09:20:35Z</time>
 </trkpt>
 <trkpt lat="47.250561" lon="13.803949">
 <ele>1298.09</ele>
 <time>2011-09-29T09:20:42Z</time>
 </trkpt>
 <trkpt lat="47.250332" lon="13.803995">
 <ele>1296.71</ele>
 <time>2011-09-29T09:20:46Z</time>
 </trkpt>
 <trkpt lat="47.249958" lon="13.803960">
 <ele>1294.26</ele>
 <time>2011-09-29T09:20:52Z</time>
 </trkpt>
 <trkpt lat="47.249634" lon="13.803921">
 <ele>1293.54</ele>
 <time>2011-09-29T09:20:58Z</time>
 </trkpt>
 <trkpt lat="47.249413" lon="13.803809">
 <ele>1293.94</ele>
 <time>2011-09-29T09:21:03Z</time>
 </trkpt>
 <trkpt lat="47.249210" lon="13.803628">
 <ele>1293.20</ele>
 <time>2011-09-29T09:21:07Z</time>
 </trkpt>
 <trkpt lat="47.249096" lon="13.803528">
 <ele>1292.45</ele>
 <time>2011-09-29T09:21:09Z</time>
 </trkpt>
 <trkpt lat="47.248787" lon="13.803410">
 <ele>1291.44</ele>
 <time>2011-09-29T09:21:14Z</time>
 </trkpt>
 <trkpt lat="47.248722" lon="13.803412">
 <ele>1291.22</ele>
 <time>2011-09-29T09:21:15Z</time>
 </trkpt>
 <trkpt lat="47.248341" lon="13.803471">
 <ele>1290.86</ele>
 <time>2011-09-29T09:21:22Z</time>
 </trkpt>
 <trkpt lat="47.248089" lon="13.803539">
 <ele>1291.72</ele>
 <time>2011-09-29T09:21:28Z</time>
 </trkpt>
 <trkpt lat="47.247810" lon="13.803578">
 <ele>1291.87</ele>
 <time>2011-09-29T09:21:34Z</time>
 </trkpt>
 <trkpt lat="47.247559" lon="13.803504">
 <ele>1291.43</ele>
 <time>2011-09-29T09:21:39Z</time>
 </trkpt>
 <trkpt lat="47.247208" lon="13.803365">
 <ele>1292.08</ele>
 <time>2011-09-29T09:21:47Z</time>
 </trkpt>
 <trkpt lat="47.247169" lon="13.803358">
 <ele>1292.31</ele>
 <time>2011-09-29T09:21:48Z</time>
 </trkpt>
 <trkpt lat="47.247005" lon="13.803348">
 <ele>1293.07</ele>
 <time>2011-09-29T09:21:52Z</time>
 </trkpt>
 <trkpt lat="47.246643" lon="13.803387">
 <ele>1291.01</ele>
 <time>2011-09-29T09:22:00Z</time>
 </trkpt>
 <trkpt lat="47.246380" lon="13.803490">
 <ele>1289.90</ele>
 <time>2011-09-29T09:22:05Z</time>
 </trkpt>
 <trkpt lat="47.246220" lon="13.803665">
 <ele>1288.72</ele>
 <time>2011-09-29T09:22:11Z</time>
 </trkpt>
 <trkpt lat="47.246113" lon="13.803879">
 <ele>1287.11</ele>
 <time>2011-09-29T09:22:17Z</time>
 </trkpt>
 <trkpt lat="47.245850" lon="13.804132">
 <ele>1284.87</ele>
 <time>2011-09-29T09:22:24Z</time>
 </trkpt>
 <trkpt lat="47.245770" lon="13.804201">
 <ele>1284.38</ele>
 <time>2011-09-29T09:22:26Z</time>
 </trkpt>
 <trkpt lat="47.245583" lon="13.804408">
 <ele>1285.03</ele>
 <time>2011-09-29T09:22:33Z</time>
 </trkpt>
 <trkpt lat="47.245396" lon="13.804524">
 <ele>1286.04</ele>
 <time>2011-09-29T09:22:39Z</time>
 </trkpt>
 <trkpt lat="47.245171" lon="13.804560">
 <ele>1286.73</ele>
 <time>2011-09-29T09:22:45Z</time>
 </trkpt>
 <trkpt lat="47.244854" lon="13.804508">
 <ele>1286.09</ele>
 <time>2011-09-29T09:22:52Z</time>
 </trkpt>
 <trkpt lat="47.244614" lon="13.804453">
 <ele>1285.27</ele>
 <time>2011-09-29T09:22:58Z</time>
 </trkpt>
 <trkpt lat="47.244431" lon="13.804465">
 <ele>1284.35</ele>
 <time>2011-09-29T09:23:04Z</time>
 </trkpt>
 <trkpt lat="47.244221" lon="13.804517">
 <ele>1282.69</ele>
 <time>2011-09-29T09:23:10Z</time>
 </trkpt>
 <trkpt lat="47.244045" lon="13.804479">
 <ele>1282.02</ele>
 <time>2011-09-29T09:23:15Z</time>
 </trkpt>
 <trkpt lat="47.243797" lon="13.804369">
 <ele>1282.49</ele>
 <time>2011-09-29T09:23:22Z</time>
 </trkpt>
 <trkpt lat="47.243542" lon="13.804252">
 <ele>1280.61</ele>
 <time>2011-09-29T09:23:30Z</time>
 </trkpt>
 <trkpt lat="47.243374" lon="13.804228">
 <ele>1278.89</ele>
 <time>2011-09-29T09:23:36Z</time>
 </trkpt>
 <trkpt lat="47.243191" lon="13.804220">
 <ele>1276.77</ele>
 <time>2011-09-29T09:23:42Z</time>
 </trkpt>
 <trkpt lat="47.242966" lon="13.804187">
 <ele>1273.96</ele>
 <time>2011-09-29T09:23:49Z</time>
 </trkpt>
 <trkpt lat="47.242779" lon="13.804135">
 <ele>1271.81</ele>
 <time>2011-09-29T09:23:55Z</time>
 </trkpt>
 <trkpt lat="47.242561" lon="13.804072">
 <ele>1269.87</ele>
 <time>2011-09-29T09:24:00Z</time>
 </trkpt>
 <trkpt lat="47.242336" lon="13.803999">
 <ele>1268.11</ele>
 <time>2011-09-29T09:24:04Z</time>
 </trkpt>
 <trkpt lat="47.242111" lon="13.803962">
 <ele>1266.76</ele>
 <time>2011-09-29T09:24:09Z</time>
 </trkpt>
 <trkpt lat="47.241966" lon="13.803960">
 <ele>1266.44</ele>
 <time>2011-09-29T09:24:14Z</time>
 </trkpt>
 <trkpt lat="47.241909" lon="13.803978">
 <ele>1266.11</ele>
 <time>2011-09-29T09:24:19Z</time>
 </trkpt>
 <trkpt lat="47.241814" lon="13.803985">
 <ele>1265.87</ele>
 <time>2011-09-29T09:24:24Z</time>
 </trkpt>
 <trkpt lat="47.241764" lon="13.803987">
 <ele>1265.66</ele>
 <time>2011-09-29T09:24:27Z</time>
 </trkpt>
 <trkpt lat="47.241749" lon="13.803959">
 <ele>1265.26</ele>
 <time>2011-09-29T09:24:31Z</time>
 </trkpt>
 <trkpt lat="47.241734" lon="13.803891">
 <ele>1265.29</ele>
 <time>2011-09-29T09:25:26Z</time>
 </trkpt>
 <trkpt lat="47.241646" lon="13.803890">
 <ele>1264.70</ele>
 <time>2011-09-29T09:25:30Z</time>
 </trkpt>
 <trkpt lat="47.241505" lon="13.803863">
 <ele>1264.07</ele>
 <time>2011-09-29T09:25:36Z</time>
 </trkpt>
 <trkpt lat="47.241402" lon="13.803808">
 <ele>1263.78</ele>
 <time>2011-09-29T09:25:41Z</time>
 </trkpt>
 <trkpt lat="47.241386" lon="13.803776">
 <ele>1263.84</ele>
 <time>2011-09-29T09:25:44Z</time>
 </trkpt>
 <trkpt lat="47.241364" lon="13.803770">
 <ele>1263.93</ele>
 <time>2011-09-29T09:25:48Z</time>
 </trkpt>
 <trkpt lat="47.241348" lon="13.803768">
 <ele>1263.84</ele>
 <time>2011-09-29T09:25:51Z</time>
 </trkpt>
 <trkpt lat="47.241299" lon="13.803668">
 <ele>1263.77</ele>
 <time>2011-09-29T09:26:49Z</time>
 </trkpt>
 <trkpt lat="47.241154" lon="13.803587">
 <ele>1262.97</ele>
 <time>2011-09-29T09:26:55Z</time>
 </trkpt>
 <trkpt lat="47.241066" lon="13.803532">
 <ele>1262.25</ele>
 <time>2011-09-29T09:27:00Z</time>
 </trkpt>
 <trkpt lat="47.241058" lon="13.803518">
 <ele>1262.15</ele>
 <time>2011-09-29T09:27:02Z</time>
 </trkpt>
 <trkpt lat="47.240955" lon="13.803489">
 <ele>1262.68</ele>
 <time>2011-09-29T09:27:39Z</time>
 </trkpt>
 <trkpt lat="47.240864" lon="13.803474">
 <ele>1262.45</ele>
 <time>2011-09-29T09:27:42Z</time>
 </trkpt>
 <trkpt lat="47.240692" lon="13.803492">
 <ele>1261.97</ele>
 <time>2011-09-29T09:27:47Z</time>
 </trkpt>
 <trkpt lat="47.240448" lon="13.803498">
 <ele>1261.80</ele>
 <time>2011-09-29T09:27:53Z</time>
 </trkpt>
 <trkpt lat="47.240276" lon="13.803503">
 <ele>1261.67</ele>
 <time>2011-09-29T09:27:58Z</time>
 </trkpt>
 <trkpt lat="47.240074" lon="13.803460">
 <ele>1261.44</ele>
 <time>2011-09-29T09:28:03Z</time>
 </trkpt>
 <trkpt lat="47.239914" lon="13.803461">
 <ele>1261.18</ele>
 <time>2011-09-29T09:28:06Z</time>
 </trkpt>
 <trkpt lat="47.239746" lon="13.803483">
 <ele>1260.72</ele>
 <time>2011-09-29T09:28:10Z</time>
 </trkpt>
 <trkpt lat="47.239372" lon="13.803742">
 <ele>1260.05</ele>
 <time>2011-09-29T09:28:19Z</time>
 </trkpt>
 <trkpt lat="47.239040" lon="13.804025">
 <ele>1259.90</ele>
 <time>2011-09-29T09:28:27Z</time>
 </trkpt>
 <trkpt lat="47.238895" lon="13.804153">
 <ele>1259.60</ele>
 <time>2011-09-29T09:28:30Z</time>
 </trkpt>
 <trkpt lat="47.238728" lon="13.804381">
 <ele>1259.01</ele>
 <time>2011-09-29T09:28:34Z</time>
 </trkpt>
 <trkpt lat="47.238468" lon="13.804628">
 <ele>1258.84</ele>
 <time>2011-09-29T09:28:40Z</time>
 </trkpt>
 <trkpt lat="47.238338" lon="13.804714">
 <ele>1259.14</ele>
 <time>2011-09-29T09:28:43Z</time>
 </trkpt>
 <trkpt lat="47.238129" lon="13.804809">
 <ele>1258.94</ele>
 <time>2011-09-29T09:28:47Z</time>
 </trkpt>
 <trkpt lat="47.237892" lon="13.804816">
 <ele>1258.02</ele>
 <time>2011-09-29T09:28:51Z</time>
 </trkpt>
 <trkpt lat="47.237530" lon="13.804660">
 <ele>1256.56</ele>
 <time>2011-09-29T09:28:57Z</time>
 </trkpt>
 <trkpt lat="47.237427" lon="13.804600">
 <ele>1256.34</ele>
 <time>2011-09-29T09:28:59Z</time>
 </trkpt>
 <trkpt lat="47.237183" lon="13.804483">
 <ele>1256.22</ele>
 <time>2011-09-29T09:29:04Z</time>
 </trkpt>
 <trkpt lat="47.237064" lon="13.804453">
 <ele>1255.93</ele>
 <time>2011-09-29T09:29:06Z</time>
 </trkpt>
 <trkpt lat="47.236942" lon="13.804410">
 <ele>1255.38</ele>
 <time>2011-09-29T09:29:08Z</time>
 </trkpt>
 <trkpt lat="47.236671" lon="13.804438">
 <ele>1254.61</ele>
 <time>2011-09-29T09:29:12Z</time>
 </trkpt>
 <trkpt lat="47.236355" lon="13.804544">
 <ele>1253.32</ele>
 <time>2011-09-29T09:29:17Z</time>
 </trkpt>
 <trkpt lat="47.236286" lon="13.804555">
 <ele>1253.13</ele>
 <time>2011-09-29T09:29:18Z</time>
 </trkpt>
 <trkpt lat="47.236012" lon="13.804588">
 <ele>1252.13</ele>
 <time>2011-09-29T09:29:22Z</time>
 </trkpt>
 <trkpt lat="47.235638" lon="13.804755">
 <ele>1251.45</ele>
 <time>2011-09-29T09:29:28Z</time>
 </trkpt>
 <trkpt lat="47.235313" lon="13.804955">
 <ele>1250.31</ele>
 <time>2011-09-29T09:29:33Z</time>
 </trkpt>
 <trkpt lat="47.235050" lon="13.805163">
 <ele>1249.99</ele>
 <time>2011-09-29T09:29:38Z</time>
 </trkpt>
 <trkpt lat="47.234821" lon="13.805423">
 <ele>1250.08</ele>
 <time>2011-09-29T09:29:43Z</time>
 </trkpt>
 <trkpt lat="47.234573" lon="13.805570">
 <ele>1249.54</ele>
 <time>2011-09-29T09:29:48Z</time>
 </trkpt>
 <trkpt lat="47.234409" lon="13.805655">
 <ele>1249.05</ele>
 <time>2011-09-29T09:29:51Z</time>
 </trkpt>
 <trkpt lat="47.234169" lon="13.805691">
 <ele>1248.23</ele>
 <time>2011-09-29T09:29:55Z</time>
 </trkpt>
 <trkpt lat="47.234051" lon="13.805664">
 <ele>1248.03</ele>
 <time>2011-09-29T09:29:57Z</time>
 </trkpt>
 <trkpt lat="47.233829" lon="13.805678">
 <ele>1248.18</ele>
 <time>2011-09-29T09:30:01Z</time>
 </trkpt>
 <trkpt lat="47.233669" lon="13.805683">
 <ele>1248.51</ele>
 <time>2011-09-29T09:30:04Z</time>
 </trkpt>
 <trkpt lat="47.233448" lon="13.805660">
 <ele>1248.60</ele>
 <time>2011-09-29T09:30:08Z</time>
 </trkpt>
 <trkpt lat="47.233028" lon="13.805676">
 <ele>1247.82</ele>
 <time>2011-09-29T09:30:15Z</time>
 </trkpt>
 <trkpt lat="47.232620" lon="13.805727">
 <ele>1245.82</ele>
 <time>2011-09-29T09:30:21Z</time>
 </trkpt>
 <trkpt lat="47.232422" lon="13.805750">
 <ele>1245.44</ele>
 <time>2011-09-29T09:30:24Z</time>
 </trkpt>
 <trkpt lat="47.231934" lon="13.805888">
 <ele>1246.62</ele>
 <time>2011-09-29T09:30:33Z</time>
 </trkpt>
 <trkpt lat="47.231880" lon="13.805902">
 <ele>1246.69</ele>
 <time>2011-09-29T09:30:34Z</time>
 </trkpt>
 <trkpt lat="47.231682" lon="13.805891">
 <ele>1247.12</ele>
 <time>2011-09-29T09:30:38Z</time>
 </trkpt>
 <trkpt lat="47.231529" lon="13.805836">
 <ele>1247.34</ele>
 <time>2011-09-29T09:30:41Z</time>
 </trkpt>
 <trkpt lat="47.231266" lon="13.805839">
 <ele>1247.90</ele>
 <time>2011-09-29T09:30:46Z</time>
 </trkpt>
 <trkpt lat="47.231007" lon="13.805832">
 <ele>1248.54</ele>
 <time>2011-09-29T09:30:51Z</time>
 </trkpt>
 <trkpt lat="47.230595" lon="13.805900">
 <ele>1247.74</ele>
 <time>2011-09-29T09:30:58Z</time>
 </trkpt>
 <trkpt lat="47.230358" lon="13.805891">
 <ele>1247.36</ele>
 <time>2011-09-29T09:31:03Z</time>
 </trkpt>
 <trkpt lat="47.230110" lon="13.805863">
 <ele>1248.18</ele>
 <time>2011-09-29T09:31:08Z</time>
 </trkpt>
 <trkpt lat="47.229919" lon="13.805848">
 <ele>1248.69</ele>
 <time>2011-09-29T09:31:12Z</time>
 </trkpt>
 <trkpt lat="47.229649" lon="13.805810">
 <ele>1248.11</ele>
 <time>2011-09-29T09:31:17Z</time>
 </trkpt>
 <trkpt lat="47.229271" lon="13.805837">
 <ele>1245.77</ele>
 <time>2011-09-29T09:31:23Z</time>
 </trkpt>
 <trkpt lat="47.229145" lon="13.805842">
 <ele>1244.78</ele>
 <time>2011-09-29T09:31:25Z</time>
 </trkpt>
 <trkpt lat="47.228912" lon="13.805806">
 <ele>1242.74</ele>
 <time>2011-09-29T09:31:29Z</time>
 </trkpt>
 <trkpt lat="47.228565" lon="13.805555">
 <ele>1240.19</ele>
 <time>2011-09-29T09:31:35Z</time>
 </trkpt>
 <trkpt lat="47.228165" lon="13.805251">
 <ele>1237.21</ele>
 <time>2011-09-29T09:31:41Z</time>
 </trkpt>
 <trkpt lat="47.227863" lon="13.805141">
 <ele>1235.64</ele>
 <time>2011-09-29T09:31:45Z</time>
 </trkpt>
 <trkpt lat="47.227531" lon="13.805110">
 <ele>1234.24</ele>
 <time>2011-09-29T09:31:50Z</time>
 </trkpt>
 <trkpt lat="47.227467" lon="13.805111">
 <ele>1234.30</ele>
 <time>2011-09-29T09:31:51Z</time>
 </trkpt>
 <trkpt lat="47.227180" lon="13.805239">
 <ele>1234.87</ele>
 <time>2011-09-29T09:31:56Z</time>
 </trkpt>
 <trkpt lat="47.226997" lon="13.805401">
 <ele>1234.45</ele>
 <time>2011-09-29T09:31:59Z</time>
 </trkpt>
 <trkpt lat="47.226646" lon="13.805589">
 <ele>1233.55</ele>
 <time>2011-09-29T09:32:05Z</time>
 </trkpt>
 <trkpt lat="47.226303" lon="13.805745">
 <ele>1234.98</ele>
 <time>2011-09-29T09:32:12Z</time>
 </trkpt>
 <trkpt lat="47.225918" lon="13.805927">
 <ele>1236.98</ele>
 <time>2011-09-29T09:32:21Z</time>
 </trkpt>
 <trkpt lat="47.225651" lon="13.806103">
 <ele>1236.79</ele>
 <time>2011-09-29T09:32:27Z</time>
 </trkpt>
 <trkpt lat="47.225342" lon="13.806322">
 <ele>1235.32</ele>
 <time>2011-09-29T09:32:33Z</time>
 </trkpt>
 <trkpt lat="47.225109" lon="13.806378">
 <ele>1233.89</ele>
 <time>2011-09-29T09:32:37Z</time>
 </trkpt>
 <trkpt lat="47.224770" lon="13.806269">
 <ele>1233.18</ele>
 <time>2011-09-29T09:32:43Z</time>
 </trkpt>
 <trkpt lat="47.224236" lon="13.805787">
 <ele>1231.34</ele>
 <time>2011-09-29T09:32:53Z</time>
 </trkpt>
 <trkpt lat="47.223995" lon="13.805657">
 <ele>1230.44</ele>
 <time>2011-09-29T09:32:57Z</time>
 </trkpt>
 <trkpt lat="47.223560" lon="13.805445">
 <ele>1228.52</ele>
 <time>2011-09-29T09:33:04Z</time>
 </trkpt>
 <trkpt lat="47.223240" lon="13.805313">
 <ele>1227.33</ele>
 <time>2011-09-29T09:33:09Z</time>
 </trkpt>
 <trkpt lat="47.222870" lon="13.805119">
 <ele>1226.42</ele>
 <time>2011-09-29T09:33:15Z</time>
 </trkpt>
 <trkpt lat="47.222740" lon="13.805051">
 <ele>1225.92</ele>
 <time>2011-09-29T09:33:17Z</time>
 </trkpt>
 <trkpt lat="47.222527" lon="13.804873">
 <ele>1225.40</ele>
 <time>2011-09-29T09:33:21Z</time>
 </trkpt>
 <trkpt lat="47.222298" lon="13.804823">
 <ele>1225.46</ele>
 <time>2011-09-29T09:33:25Z</time>
 </trkpt>
 <trkpt lat="47.222149" lon="13.804844">
 <ele>1225.33</ele>
 <time>2011-09-29T09:33:28Z</time>
 </trkpt>
 <trkpt lat="47.221916" lon="13.805037">
 <ele>1225.45</ele>
 <time>2011-09-29T09:33:33Z</time>
 </trkpt>
 <trkpt lat="47.221848" lon="13.805171">
 <ele>1225.60</ele>
 <time>2011-09-29T09:33:35Z</time>
 </trkpt>
 <trkpt lat="47.221680" lon="13.805603">
 <ele>1225.96</ele>
 <time>2011-09-29T09:33:42Z</time>
 </trkpt>
 <trkpt lat="47.221481" lon="13.806055">
 <ele>1225.98</ele>
 <time>2011-09-29T09:33:50Z</time>
 </trkpt>
 <trkpt lat="47.221451" lon="13.806109">
 <ele>1225.94</ele>
 <time>2011-09-29T09:33:51Z</time>
 </trkpt>
 <trkpt lat="47.221321" lon="13.806308">
 <ele>1226.03</ele>
 <time>2011-09-29T09:33:55Z</time>
 </trkpt>
 <trkpt lat="47.221249" lon="13.806390">
 <ele>1226.25</ele>
 <time>2011-09-29T09:33:57Z</time>
 </trkpt>
 <trkpt lat="47.220917" lon="13.806602">
 <ele>1226.93</ele>
 <time>2011-09-29T09:34:05Z</time>
 </trkpt>
 <trkpt lat="47.220833" lon="13.806661">
 <ele>1227.12</ele>
 <time>2011-09-29T09:34:07Z</time>
 </trkpt>
 <trkpt lat="47.220638" lon="13.806861">
 <ele>1227.53</ele>
 <time>2011-09-29T09:34:12Z</time>
 </trkpt>
 <trkpt lat="47.220238" lon="13.807228">
 <ele>1228.04</ele>
 <time>2011-09-29T09:34:22Z</time>
 </trkpt>
 <trkpt lat="47.219810" lon="13.807501">
 <ele>1227.77</ele>
 <time>2011-09-29T09:34:31Z</time>
 </trkpt>
 <trkpt lat="47.219475" lon="13.807647">
 <ele>1225.72</ele>
 <time>2011-09-29T09:34:36Z</time>
 </trkpt>
 <trkpt lat="47.218925" lon="13.807949">
 <ele>1223.48</ele>
 <time>2011-09-29T09:34:44Z</time>
 </trkpt>
 <trkpt lat="47.218742" lon="13.808082">
 <ele>1223.57</ele>
 <time>2011-09-29T09:34:47Z</time>
 </trkpt>
 <trkpt lat="47.218426" lon="13.808177">
 <ele>1224.10</ele>
 <time>2011-09-29T09:34:52Z</time>
 </trkpt>
 <trkpt lat="47.217934" lon="13.808220">
 <ele>1224.75</ele>
 <time>2011-09-29T09:35:00Z</time>
 </trkpt>
 <trkpt lat="47.217518" lon="13.808279">
 <ele>1225.80</ele>
 <time>2011-09-29T09:35:08Z</time>
 </trkpt>
 <trkpt lat="47.217117" lon="13.808261">
 <ele>1225.72</ele>
 <time>2011-09-29T09:35:15Z</time>
 </trkpt>
 <trkpt lat="47.217060" lon="13.808248">
 <ele>1225.59</ele>
 <time>2011-09-29T09:35:16Z</time>
 </trkpt>
 <trkpt lat="47.216816" lon="13.808000">
 <ele>1225.13</ele>
 <time>2011-09-29T09:35:21Z</time>
 </trkpt>
 <trkpt lat="47.216702" lon="13.807765">
 <ele>1224.82</ele>
 <time>2011-09-29T09:35:24Z</time>
 </trkpt>
 <trkpt lat="47.216515" lon="13.807527">
 <ele>1224.46</ele>
 <time>2011-09-29T09:35:28Z</time>
 </trkpt>
 <trkpt lat="47.216377" lon="13.807410">
 <ele>1224.74</ele>
 <time>2011-09-29T09:35:31Z</time>
 </trkpt>
 <trkpt lat="47.216232" lon="13.807169">
 <ele>1225.92</ele>
 <time>2011-09-29T09:35:36Z</time>
 </trkpt>
 <trkpt lat="47.216064" lon="13.806621">
 <ele>1227.08</ele>
 <time>2011-09-29T09:35:45Z</time>
 </trkpt>
 <trkpt lat="47.215881" lon="13.806242">
 <ele>1228.04</ele>
 <time>2011-09-29T09:35:52Z</time>
 </trkpt>
 <trkpt lat="47.215637" lon="13.805889">
 <ele>1227.26</ele>
 <time>2011-09-29T09:35:58Z</time>
 </trkpt>
 <trkpt lat="47.215355" lon="13.805538">
 <ele>1225.29</ele>
 <time>2011-09-29T09:36:03Z</time>
 </trkpt>
 <trkpt lat="47.215130" lon="13.805078">
 <ele>1223.56</ele>
 <time>2011-09-29T09:36:08Z</time>
 </trkpt>
 <trkpt lat="47.214931" lon="13.805016">
 <ele>1223.25</ele>
 <time>2011-09-29T09:36:11Z</time>
 </trkpt>
 <trkpt lat="47.214813" lon="13.805106">
 <ele>1223.30</ele>
 <time>2011-09-29T09:36:13Z</time>
 </trkpt>
 <trkpt lat="47.214432" lon="13.805564">
 <ele>1223.63</ele>
 <time>2011-09-29T09:36:21Z</time>
 </trkpt>
 <trkpt lat="47.214252" lon="13.805863">
 <ele>1224.20</ele>
 <time>2011-09-29T09:36:26Z</time>
 </trkpt>
 <trkpt lat="47.213993" lon="13.806108">
 <ele>1225.15</ele>
 <time>2011-09-29T09:36:32Z</time>
 </trkpt>
 <trkpt lat="47.213844" lon="13.806205">
 <ele>1225.21</ele>
 <time>2011-09-29T09:36:35Z</time>
 </trkpt>
 <trkpt lat="47.213577" lon="13.806313">
 <ele>1224.94</ele>
 <time>2011-09-29T09:36:40Z</time>
 </trkpt>
 <trkpt lat="47.213387" lon="13.806503">
 <ele>1224.46</ele>
 <time>2011-09-29T09:36:44Z</time>
 </trkpt>
 <trkpt lat="47.213360" lon="13.806585">
 <ele>1224.40</ele>
 <time>2011-09-29T09:36:45Z</time>
 </trkpt>
 <trkpt lat="47.213196" lon="13.806927">
 <ele>1223.65</ele>
 <time>2011-09-29T09:36:50Z</time>
 </trkpt>
 <trkpt lat="47.212753" lon="13.807350">
 <ele>1221.77</ele>
 <time>2011-09-29T09:36:58Z</time>
 </trkpt>
 <trkpt lat="47.212387" lon="13.807724">
 <ele>1219.76</ele>
 <time>2011-09-29T09:37:04Z</time>
 </trkpt>
 <trkpt lat="47.212326" lon="13.807776">
 <ele>1219.56</ele>
 <time>2011-09-29T09:37:05Z</time>
 </trkpt>
 <trkpt lat="47.212105" lon="13.808080">
 <ele>1218.49</ele>
 <time>2011-09-29T09:37:09Z</time>
 </trkpt>
 <trkpt lat="47.212059" lon="13.808187">
 <ele>1217.91</ele>
 <time>2011-09-29T09:37:10Z</time>
 </trkpt>
 <trkpt lat="47.211895" lon="13.808784">
 <ele>1214.59</ele>
 <time>2011-09-29T09:37:15Z</time>
 </trkpt>
 <trkpt lat="47.211872" lon="13.808899">
 <ele>1214.03</ele>
 <time>2011-09-29T09:37:16Z</time>
 </trkpt>
 <trkpt lat="47.211727" lon="13.809227">
 <ele>1213.23</ele>
 <time>2011-09-29T09:37:20Z</time>
 </trkpt>
 <trkpt lat="47.211533" lon="13.809261">
 <ele>1213.27</ele>
 <time>2011-09-29T09:37:23Z</time>
 </trkpt>
 <trkpt lat="47.211407" lon="13.809212">
 <ele>1213.49</ele>
 <time>2011-09-29T09:37:25Z</time>
 </trkpt>
 <trkpt lat="47.211220" lon="13.809116">
 <ele>1213.63</ele>
 <time>2011-09-29T09:37:28Z</time>
 </trkpt>
 <trkpt lat="47.210804" lon="13.809072">
 <ele>1212.85</ele>
 <time>2011-09-29T09:37:34Z</time>
 </trkpt>
 <trkpt lat="47.210331" lon="13.809193">
 <ele>1211.49</ele>
 <time>2011-09-29T09:37:41Z</time>
 </trkpt>
 <trkpt lat="47.209961" lon="13.809467">
 <ele>1210.56</ele>
 <time>2011-09-29T09:37:47Z</time>
 </trkpt>
 <trkpt lat="47.209774" lon="13.809570">
 <ele>1210.26</ele>
 <time>2011-09-29T09:37:50Z</time>
 </trkpt>
 <trkpt lat="47.209606" lon="13.809707">
 <ele>1210.16</ele>
 <time>2011-09-29T09:37:53Z</time>
 </trkpt>
 <trkpt lat="47.209209" lon="13.809953">
 <ele>1209.04</ele>
 <time>2011-09-29T09:37:59Z</time>
 </trkpt>
 <trkpt lat="47.208858" lon="13.810237">
 <ele>1207.94</ele>
 <time>2011-09-29T09:38:05Z</time>
 </trkpt>
 <trkpt lat="47.208652" lon="13.810308">
 <ele>1207.63</ele>
 <time>2011-09-29T09:38:08Z</time>
 </trkpt>
 <trkpt lat="47.208370" lon="13.810291">
 <ele>1207.00</ele>
 <time>2011-09-29T09:38:12Z</time>
 </trkpt>
 <trkpt lat="47.208103" lon="13.810425">
 <ele>1206.12</ele>
 <time>2011-09-29T09:38:16Z</time>
 </trkpt>
 <trkpt lat="47.207813" lon="13.810553">
 <ele>1205.49</ele>
 <time>2011-09-29T09:38:20Z</time>
 </trkpt>
 <trkpt lat="47.207355" lon="13.810499">
 <ele>1204.88</ele>
 <time>2011-09-29T09:38:26Z</time>
 </trkpt>
 <trkpt lat="47.207066" lon="13.810563">
 <ele>1204.08</ele>
 <time>2011-09-29T09:38:30Z</time>
 </trkpt>
 <trkpt lat="47.206692" lon="13.810764">
 <ele>1203.80</ele>
 <time>2011-09-29T09:38:36Z</time>
 </trkpt>
 <trkpt lat="47.206356" lon="13.811029">
 <ele>1203.94</ele>
 <time>2011-09-29T09:38:42Z</time>
 </trkpt>
 <trkpt lat="47.205990" lon="13.811400">
 <ele>1201.68</ele>
 <time>2011-09-29T09:38:48Z</time>
 </trkpt>
 <trkpt lat="47.205662" lon="13.811722">
 <ele>1199.81</ele>
 <time>2011-09-29T09:38:53Z</time>
 </trkpt>
 <trkpt lat="47.205246" lon="13.811998">
 <ele>1198.61</ele>
 <time>2011-09-29T09:38:59Z</time>
 </trkpt>
 <trkpt lat="47.205097" lon="13.812086">
 <ele>1198.21</ele>
 <time>2011-09-29T09:39:01Z</time>
 </trkpt>
 <trkpt lat="47.204765" lon="13.812134">
 <ele>1197.06</ele>
 <time>2011-09-29T09:39:05Z</time>
 </trkpt>
 <trkpt lat="47.204208" lon="13.811971">
 <ele>1195.85</ele>
 <time>2011-09-29T09:39:12Z</time>
 </trkpt>
 <trkpt lat="47.203716" lon="13.811882">
 <ele>1196.39</ele>
 <time>2011-09-29T09:39:19Z</time>
 </trkpt>
 <trkpt lat="47.203510" lon="13.811872">
 <ele>1196.49</ele>
 <time>2011-09-29T09:39:22Z</time>
 </trkpt>
 <trkpt lat="47.203014" lon="13.811949">
 <ele>1196.75</ele>
 <time>2011-09-29T09:39:30Z</time>
 </trkpt>
 <trkpt lat="47.202621" lon="13.811854">
 <ele>1197.81</ele>
 <time>2011-09-29T09:39:37Z</time>
 </trkpt>
 <trkpt lat="47.202206" lon="13.811789">
 <ele>1198.80</ele>
 <time>2011-09-29T09:39:45Z</time>
 </trkpt>
 <trkpt lat="47.201881" lon="13.811839">
 <ele>1198.70</ele>
 <time>2011-09-29T09:39:51Z</time>
 </trkpt>
 <trkpt lat="47.201412" lon="13.811988">
 <ele>1197.61</ele>
 <time>2011-09-29T09:39:59Z</time>
 </trkpt>
 <trkpt lat="47.200954" lon="13.811999">
 <ele>1197.01</ele>
 <time>2011-09-29T09:40:06Z</time>
 </trkpt>
 <trkpt lat="47.200508" lon="13.811905">
 <ele>1196.57</ele>
 <time>2011-09-29T09:40:13Z</time>
 </trkpt>
 <trkpt lat="47.200172" lon="13.811914">
 <ele>1196.45</ele>
 <time>2011-09-29T09:40:18Z</time>
 </trkpt>
 <trkpt lat="47.200027" lon="13.811934">
 <ele>1195.76</ele>
 <time>2011-09-29T09:40:20Z</time>
 </trkpt>
 <trkpt lat="47.199764" lon="13.811826">
 <ele>1194.15</ele>
 <time>2011-09-29T09:40:24Z</time>
 </trkpt>
 <trkpt lat="47.199722" lon="13.811755">
 <ele>1193.90</ele>
 <time>2011-09-29T09:40:25Z</time>
 </trkpt>
 <trkpt lat="47.199348" lon="13.811093">
 <ele>1193.17</ele>
 <time>2011-09-29T09:40:34Z</time>
 </trkpt>
 <trkpt lat="47.199211" lon="13.810896">
 <ele>1192.80</ele>
 <time>2011-09-29T09:40:37Z</time>
 </trkpt>
 <trkpt lat="47.199142" lon="13.810767">
 <ele>1192.78</ele>
 <time>2011-09-29T09:40:39Z</time>
 </trkpt>
 <trkpt lat="47.198997" lon="13.810561">
 <ele>1193.16</ele>
 <time>2011-09-29T09:40:43Z</time>
 </trkpt>
 <trkpt lat="47.198620" lon="13.810285">
 <ele>1192.90</ele>
 <time>2011-09-29T09:40:51Z</time>
 </trkpt>
 <trkpt lat="47.198360" lon="13.810165">
 <ele>1192.63</ele>
 <time>2011-09-29T09:40:56Z</time>
 </trkpt>
 <trkpt lat="47.198093" lon="13.810187">
 <ele>1192.27</ele>
 <time>2011-09-29T09:41:01Z</time>
 </trkpt>
 <trkpt lat="47.197948" lon="13.810210">
 <ele>1192.35</ele>
 <time>2011-09-29T09:41:04Z</time>
 </trkpt>
 <trkpt lat="47.197788" lon="13.810171">
 <ele>1193.15</ele>
 <time>2011-09-29T09:41:08Z</time>
 </trkpt>
 <trkpt lat="47.197559" lon="13.810015">
 <ele>1194.99</ele>
 <time>2011-09-29T09:41:16Z</time>
 </trkpt>
 <trkpt lat="47.197422" lon="13.809890">
 <ele>1196.30</ele>
 <time>2011-09-29T09:41:22Z</time>
 </trkpt>
 <trkpt lat="47.197350" lon="13.809756">
 <ele>1197.49</ele>
 <time>2011-09-29T09:41:27Z</time>
 </trkpt>
 <trkpt lat="47.197208" lon="13.809542">
 <ele>1199.53</ele>
 <time>2011-09-29T09:41:36Z</time>
 </trkpt>
 <trkpt lat="47.197025" lon="13.809419">
 <ele>1201.75</ele>
 <time>2011-09-29T09:41:45Z</time>
 </trkpt>
 <trkpt lat="47.196922" lon="13.809373">
 <ele>1202.48</ele>
 <time>2011-09-29T09:41:50Z</time>
 </trkpt>
 <trkpt lat="47.196785" lon="13.809294">
 <ele>1203.69</ele>
 <time>2011-09-29T09:41:57Z</time>
 </trkpt>
 <trkpt lat="47.196629" lon="13.809197">
 <ele>1204.59</ele>
 <time>2011-09-29T09:42:05Z</time>
 </trkpt>
 <trkpt lat="47.196449" lon="13.809091">
 <ele>1205.37</ele>
 <time>2011-09-29T09:42:13Z</time>
 </trkpt>
 <trkpt lat="47.196278" lon="13.808969">
 <ele>1206.05</ele>
 <time>2011-09-29T09:42:21Z</time>
 </trkpt>
 <trkpt lat="47.196068" lon="13.808826">
 <ele>1207.02</ele>
 <time>2011-09-29T09:42:31Z</time>
 </trkpt>
 <trkpt lat="47.195885" lon="13.808694">
 <ele>1207.47</ele>
 <time>2011-09-29T09:42:40Z</time>
 </trkpt>
 <trkpt lat="47.195736" lon="13.808495">
 <ele>1209.47</ele>
 <time>2011-09-29T09:42:50Z</time>
 </trkpt>
 <trkpt lat="47.195660" lon="13.808325">
 <ele>1211.27</ele>
 <time>2011-09-29T09:42:57Z</time>
 </trkpt>
 <trkpt lat="47.195625" lon="13.808122">
 <ele>1212.73</ele>
 <time>2011-09-29T09:43:04Z</time>
 </trkpt>
 <trkpt lat="47.195560" lon="13.807883">
 <ele>1215.03</ele>
 <time>2011-09-29T09:43:13Z</time>
 </trkpt>
 <trkpt lat="47.195423" lon="13.807677">
 <ele>1215.68</ele>
 <time>2011-09-29T09:43:22Z</time>
 </trkpt>
 <trkpt lat="47.195335" lon="13.807611">
 <ele>1215.73</ele>
 <time>2011-09-29T09:43:26Z</time>
 </trkpt>
 <trkpt lat="47.195091" lon="13.807513">
 <ele>1214.40</ele>
 <time>2011-09-29T09:43:31Z</time>
 </trkpt>
 <trkpt lat="47.195030" lon="13.807503">
 <ele>1213.95</ele>
 <time>2011-09-29T09:43:32Z</time>
 </trkpt>
 <trkpt lat="47.194630" lon="13.807265">
 <ele>1209.79</ele>
 <time>2011-09-29T09:43:38Z</time>
 </trkpt>
 <trkpt lat="47.194370" lon="13.807222">
 <ele>1208.53</ele>
 <time>2011-09-29T09:43:42Z</time>
 </trkpt>
 <trkpt lat="47.194065" lon="13.807307">
 <ele>1208.82</ele>
 <time>2011-09-29T09:43:48Z</time>
 </trkpt>
 <trkpt lat="47.193729" lon="13.807341">
 <ele>1208.93</ele>
 <time>2011-09-29T09:43:55Z</time>
 </trkpt>
 <trkpt lat="47.193314" lon="13.807324">
 <ele>1208.96</ele>
 <time>2011-09-29T09:44:03Z</time>
 </trkpt>
 <trkpt lat="47.192844" lon="13.807247">
 <ele>1209.23</ele>
 <time>2011-09-29T09:44:12Z</time>
 </trkpt>
 <trkpt lat="47.192394" lon="13.807160">
 <ele>1209.04</ele>
 <time>2011-09-29T09:44:21Z</time>
 </trkpt>
 <trkpt lat="47.192368" lon="13.807126">
 <ele>1209.17</ele>
 <time>2011-09-29T09:44:24Z</time>
 </trkpt>
 <trkpt lat="47.192368" lon="13.807123">
 <ele>1209.28</ele>
 <time>2011-09-29T09:44:25Z</time>
 </trkpt>
 <trkpt lat="47.192356" lon="13.807119">
 <ele>1209.43</ele>
 <time>2011-09-29T09:44:30Z</time>
 </trkpt>
 <trkpt lat="47.192478" lon="13.807099">
 <ele>1209.89</ele>
 <time>2011-09-29T09:45:12Z</time>
 </trkpt>
 <trkpt lat="47.192478" lon="13.807098">
 <ele>1209.85</ele>
 <time>2011-09-29T09:45:13Z</time>
 </trkpt>
 <trkpt lat="47.192482" lon="13.807096">
 <ele>1209.66</ele>
 <time>2011-09-29T09:45:15Z</time>
 </trkpt>
 <trkpt lat="47.192345" lon="13.807064">
 <ele>1208.98</ele>
 <time>2011-09-29T09:45:23Z</time>
 </trkpt>
 <trkpt lat="47.192127" lon="13.806971">
 <ele>1208.28</ele>
 <time>2011-09-29T09:45:30Z</time>
 </trkpt>
 <trkpt lat="47.191917" lon="13.806863">
 <ele>1207.72</ele>
 <time>2011-09-29T09:45:35Z</time>
 </trkpt>
 <trkpt lat="47.191574" lon="13.806687">
 <ele>1206.56</ele>
 <time>2011-09-29T09:45:42Z</time>
 </trkpt>
 <trkpt lat="47.191288" lon="13.806601">
 <ele>1205.28</ele>
 <time>2011-09-29T09:45:47Z</time>
 </trkpt>
 <trkpt lat="47.190876" lon="13.806435">
 <ele>1202.62</ele>
 <time>2011-09-29T09:45:53Z</time>
 </trkpt>
 <trkpt lat="47.190578" lon="13.806316">
 <ele>1201.14</ele>
 <time>2011-09-29T09:45:57Z</time>
 </trkpt>
 <trkpt lat="47.190296" lon="13.806318">
 <ele>1200.03</ele>
 <time>2011-09-29T09:46:01Z</time>
 </trkpt>
 <trkpt lat="47.189968" lon="13.806472">
 <ele>1200.31</ele>
 <time>2011-09-29T09:46:07Z</time>
 </trkpt>
 <trkpt lat="47.189865" lon="13.806510">
 <ele>1200.25</ele>
 <time>2011-09-29T09:46:09Z</time>
 </trkpt>
 <trkpt lat="47.189659" lon="13.806581">
 <ele>1199.43</ele>
 <time>2011-09-29T09:46:14Z</time>
 </trkpt>
 <trkpt lat="47.189495" lon="13.806594">
 <ele>1198.45</ele>
 <time>2011-09-29T09:46:18Z</time>
 </trkpt>
 <trkpt lat="47.189194" lon="13.806587">
 <ele>1196.83</ele>
 <time>2011-09-29T09:46:25Z</time>
 </trkpt>
 <trkpt lat="47.189106" lon="13.806557">
 <ele>1196.38</ele>
 <time>2011-09-29T09:46:29Z</time>
 </trkpt>
 <trkpt lat="47.189102" lon="13.806529">
 <ele>1196.37</ele>
 <time>2011-09-29T09:46:33Z</time>
 </trkpt>
 <trkpt lat="47.189098" lon="13.806507">
 <ele>1196.38</ele>
 <time>2011-09-29T09:46:39Z</time>
 </trkpt>
 <trkpt lat="47.189041" lon="13.806514">
 <ele>1196.59</ele>
 <time>2011-09-29T09:47:18Z</time>
 </trkpt>
 <trkpt lat="47.189034" lon="13.806515">
 <ele>1196.62</ele>
 <time>2011-09-29T09:47:19Z</time>
 </trkpt>
 <trkpt lat="47.189030" lon="13.806514">
 <ele>1196.57</ele>
 <time>2011-09-29T09:47:20Z</time>
 </trkpt>
 <trkpt lat="47.188980" lon="13.806561">
 <ele>1196.21</ele>
 <time>2011-09-29T09:47:24Z</time>
 </trkpt>
 <trkpt lat="47.188877" lon="13.806805">
 <ele>1194.44</ele>
 <time>2011-09-29T09:47:29Z</time>
 </trkpt>
 <trkpt lat="47.188736" lon="13.806928">
 <ele>1192.29</ele>
 <time>2011-09-29T09:47:33Z</time>
 </trkpt>
 <trkpt lat="47.188641" lon="13.806889">
 <ele>1191.82</ele>
 <time>2011-09-29T09:47:35Z</time>
 </trkpt>
 <trkpt lat="47.188259" lon="13.806672">
 <ele>1189.04</ele>
 <time>2011-09-29T09:47:42Z</time>
 </trkpt>
 <trkpt lat="47.187977" lon="13.806440">
 <ele>1186.74</ele>
 <time>2011-09-29T09:47:46Z</time>
 </trkpt>
 <trkpt lat="47.187531" lon="13.806089">
 <ele>1181.85</ele>
 <time>2011-09-29T09:47:51Z</time>
 </trkpt>
 <trkpt lat="47.186989" lon="13.805890">
 <ele>1176.76</ele>
 <time>2011-09-29T09:47:56Z</time>
 </trkpt>
 <trkpt lat="47.186764" lon="13.805829">
 <ele>1174.92</ele>
 <time>2011-09-29T09:47:58Z</time>
 </trkpt>
 <trkpt lat="47.186310" lon="13.805879">
 <ele>1172.61</ele>
 <time>2011-09-29T09:48:02Z</time>
 </trkpt>
 <trkpt lat="47.185753" lon="13.806123">
 <ele>1168.25</ele>
 <time>2011-09-29T09:48:07Z</time>
 </trkpt>
 <trkpt lat="47.184860" lon="13.806589">
 <ele>1161.17</ele>
 <time>2011-09-29T09:48:15Z</time>
 </trkpt>
 <trkpt lat="47.184216" lon="13.806905">
 <ele>1158.12</ele>
 <time>2011-09-29T09:48:21Z</time>
 </trkpt>
 <trkpt lat="47.183777" lon="13.807076">
 <ele>1156.30</ele>
 <time>2011-09-29T09:48:25Z</time>
 </trkpt>
 <trkpt lat="47.183441" lon="13.807116">
 <ele>1154.69</ele>
 <time>2011-09-29T09:48:28Z</time>
 </trkpt>
 <trkpt lat="47.183018" lon="13.806983">
 <ele>1152.72</ele>
 <time>2011-09-29T09:48:32Z</time>
 </trkpt>
 <trkpt lat="47.182709" lon="13.806826">
 <ele>1151.39</ele>
 <time>2011-09-29T09:48:35Z</time>
 </trkpt>
 <trkpt lat="47.182289" lon="13.806801">
 <ele>1149.59</ele>
 <time>2011-09-29T09:48:39Z</time>
 </trkpt>
 <trkpt lat="47.181988" lon="13.806950">
 <ele>1148.12</ele>
 <time>2011-09-29T09:48:42Z</time>
 </trkpt>
 <trkpt lat="47.181797" lon="13.807087">
 <ele>1147.10</ele>
 <time>2011-09-29T09:48:44Z</time>
 </trkpt>
 <trkpt lat="47.181217" lon="13.807331">
 <ele>1145.02</ele>
 <time>2011-09-29T09:48:50Z</time>
 </trkpt>
 <trkpt lat="47.180576" lon="13.807598">
 <ele>1143.93</ele>
 <time>2011-09-29T09:48:57Z</time>
 </trkpt>
 <trkpt lat="47.180225" lon="13.807775">
 <ele>1142.41</ele>
 <time>2011-09-29T09:49:01Z</time>
 </trkpt>
 <trkpt lat="47.179604" lon="13.808047">
 <ele>1140.94</ele>
 <time>2011-09-29T09:49:08Z</time>
 </trkpt>
 <trkpt lat="47.178692" lon="13.808265">
 <ele>1138.68</ele>
 <time>2011-09-29T09:49:18Z</time>
 </trkpt>
 <trkpt lat="47.177711" lon="13.808434">
 <ele>1135.78</ele>
 <time>2011-09-29T09:49:29Z</time>
 </trkpt>
 <trkpt lat="47.177113" lon="13.808347">
 <ele>1134.93</ele>
 <time>2011-09-29T09:49:36Z</time>
 </trkpt>
 <trkpt lat="47.176182" lon="13.808219">
 <ele>1132.57</ele>
 <time>2011-09-29T09:49:47Z</time>
 </trkpt>
 <trkpt lat="47.175266" lon="13.808217">
 <ele>1131.23</ele>
 <time>2011-09-29T09:49:58Z</time>
 </trkpt>
 <trkpt lat="47.174484" lon="13.808100">
 <ele>1128.86</ele>
 <time>2011-09-29T09:50:07Z</time>
 </trkpt>
 <trkpt lat="47.173660" lon="13.807902">
 <ele>1126.78</ele>
 <time>2011-09-29T09:50:17Z</time>
 </trkpt>
 <trkpt lat="47.173145" lon="13.807557">
 <ele>1126.38</ele>
 <time>2011-09-29T09:50:24Z</time>
 </trkpt>
 <trkpt lat="47.172993" lon="13.807492">
 <ele>1126.16</ele>
 <time>2011-09-29T09:50:26Z</time>
 </trkpt>
 <trkpt lat="47.172672" lon="13.807487">
 <ele>1125.56</ele>
 <time>2011-09-29T09:50:30Z</time>
 </trkpt>
 <trkpt lat="47.172119" lon="13.807727">
 <ele>1124.03</ele>
 <time>2011-09-29T09:50:37Z</time>
 </trkpt>
 <trkpt lat="47.171589" lon="13.807959">
 <ele>1122.76</ele>
 <time>2011-09-29T09:50:44Z</time>
 </trkpt>
 <trkpt lat="47.171227" lon="13.808007">
 <ele>1123.23</ele>
 <time>2011-09-29T09:50:49Z</time>
 </trkpt>
 <trkpt lat="47.170551" lon="13.807920">
 <ele>1122.76</ele>
 <time>2011-09-29T09:50:58Z</time>
 </trkpt>
 <trkpt lat="47.170258" lon="13.807809">
 <ele>1121.67</ele>
 <time>2011-09-29T09:51:02Z</time>
 </trkpt>
 <trkpt lat="47.169945" lon="13.807455">
 <ele>1120.22</ele>
 <time>2011-09-29T09:51:07Z</time>
 </trkpt>
 <trkpt lat="47.169899" lon="13.807347">
 <ele>1119.92</ele>
 <time>2011-09-29T09:51:08Z</time>
 </trkpt>
 <trkpt lat="47.169811" lon="13.807122">
 <ele>1119.26</ele>
 <time>2011-09-29T09:51:10Z</time>
 </trkpt>
 <trkpt lat="47.169548" lon="13.806788">
 <ele>1117.31</ele>
 <time>2011-09-29T09:51:14Z</time>
 </trkpt>
 <trkpt lat="47.169464" lon="13.806732">
 <ele>1116.83</ele>
 <time>2011-09-29T09:51:15Z</time>
 </trkpt>
 <trkpt lat="47.168858" lon="13.806423">
 <ele>1114.41</ele>
 <time>2011-09-29T09:51:22Z</time>
 </trkpt>
 <trkpt lat="47.168118" lon="13.806201">
 <ele>1111.28</ele>
 <time>2011-09-29T09:51:30Z</time>
 </trkpt>
 <trkpt lat="47.168026" lon="13.806157">
 <ele>1110.83</ele>
 <time>2011-09-29T09:51:31Z</time>
 </trkpt>
 <trkpt lat="47.167706" lon="13.805864">
 <ele>1109.35</ele>
 <time>2011-09-29T09:51:35Z</time>
 </trkpt>
 <trkpt lat="47.167290" lon="13.805309">
 <ele>1107.77</ele>
 <time>2011-09-29T09:51:41Z</time>
 </trkpt>
 <trkpt lat="47.166885" lon="13.805058">
 <ele>1107.16</ele>
 <time>2011-09-29T09:51:46Z</time>
 </trkpt>
 <trkpt lat="47.166630" lon="13.805003">
 <ele>1106.59</ele>
 <time>2011-09-29T09:51:49Z</time>
 </trkpt>
 <trkpt lat="47.166321" lon="13.804793">
 <ele>1105.80</ele>
 <time>2011-09-29T09:51:53Z</time>
 </trkpt>
 <trkpt lat="47.166195" lon="13.804618">
 <ele>1105.36</ele>
 <time>2011-09-29T09:51:55Z</time>
 </trkpt>
 <trkpt lat="47.165764" lon="13.803770">
 <ele>1102.35</ele>
 <time>2011-09-29T09:52:03Z</time>
 </trkpt>
 <trkpt lat="47.165493" lon="13.803426">
 <ele>1100.88</ele>
 <time>2011-09-29T09:52:07Z</time>
 </trkpt>
 <trkpt lat="47.165150" lon="13.803293">
 <ele>1099.97</ele>
 <time>2011-09-29T09:52:11Z</time>
 </trkpt>
 <trkpt lat="47.164890" lon="13.803352">
 <ele>1099.35</ele>
 <time>2011-09-29T09:52:14Z</time>
 </trkpt>
 <trkpt lat="47.164211" lon="13.803747">
 <ele>1096.39</ele>
 <time>2011-09-29T09:52:22Z</time>
 </trkpt>
 <trkpt lat="47.164036" lon="13.803811">
 <ele>1095.56</ele>
 <time>2011-09-29T09:52:24Z</time>
 </trkpt>
 <trkpt lat="47.163681" lon="13.803777">
 <ele>1094.35</ele>
 <time>2011-09-29T09:52:28Z</time>
 </trkpt>
 <trkpt lat="47.163425" lon="13.803750">
 <ele>1094.06</ele>
 <time>2011-09-29T09:52:31Z</time>
 </trkpt>
 <trkpt lat="47.163250" lon="13.803769">
 <ele>1093.72</ele>
 <time>2011-09-29T09:52:33Z</time>
 </trkpt>
 <trkpt lat="47.162914" lon="13.803630">
 <ele>1092.96</ele>
 <time>2011-09-29T09:52:37Z</time>
 </trkpt>
 <trkpt lat="47.162426" lon="13.803296">
 <ele>1090.86</ele>
 <time>2011-09-29T09:52:43Z</time>
 </trkpt>
 <trkpt lat="47.162025" lon="13.803010">
 <ele>1089.40</ele>
 <time>2011-09-29T09:52:48Z</time>
 </trkpt>
 <trkpt lat="47.161686" lon="13.802952">
 <ele>1088.36</ele>
 <time>2011-09-29T09:52:52Z</time>
 </trkpt>
 <trkpt lat="47.161449" lon="13.803112">
 <ele>1087.44</ele>
 <time>2011-09-29T09:52:55Z</time>
 </trkpt>
 <trkpt lat="47.161377" lon="13.803188">
 <ele>1087.13</ele>
 <time>2011-09-29T09:52:56Z</time>
 </trkpt>
 <trkpt lat="47.161007" lon="13.803740">
 <ele>1085.81</ele>
 <time>2011-09-29T09:53:02Z</time>
 </trkpt>
 <trkpt lat="47.160782" lon="13.804290">
 <ele>1084.36</ele>
 <time>2011-09-29T09:53:07Z</time>
 </trkpt>
 <trkpt lat="47.160606" lon="13.804744">
 <ele>1083.33</ele>
 <time>2011-09-29T09:53:11Z</time>
 </trkpt>
 <trkpt lat="47.160332" lon="13.805067">
 <ele>1082.34</ele>
 <time>2011-09-29T09:53:15Z</time>
 </trkpt>
 <trkpt lat="47.160072" lon="13.805082">
 <ele>1081.40</ele>
 <time>2011-09-29T09:53:18Z</time>
 </trkpt>
 <trkpt lat="47.159924" lon="13.804962">
 <ele>1081.06</ele>
 <time>2011-09-29T09:53:20Z</time>
 </trkpt>
 <trkpt lat="47.159737" lon="13.804724">
 <ele>1080.86</ele>
 <time>2011-09-29T09:53:23Z</time>
 </trkpt>
 <trkpt lat="47.159431" lon="13.804617">
 <ele>1080.69</ele>
 <time>2011-09-29T09:53:27Z</time>
 </trkpt>
 <trkpt lat="47.159355" lon="13.804634">
 <ele>1080.66</ele>
 <time>2011-09-29T09:53:28Z</time>
 </trkpt>
 <trkpt lat="47.158794" lon="13.804885">
 <ele>1079.60</ele>
 <time>2011-09-29T09:53:36Z</time>
 </trkpt>
 <trkpt lat="47.158367" lon="13.805276">
 <ele>1078.54</ele>
 <time>2011-09-29T09:53:43Z</time>
 </trkpt>
 <trkpt lat="47.157898" lon="13.805764">
 <ele>1077.24</ele>
 <time>2011-09-29T09:53:51Z</time>
 </trkpt>
 <trkpt lat="47.157425" lon="13.806047">
 <ele>1076.26</ele>
 <time>2011-09-29T09:53:58Z</time>
 </trkpt>
 <trkpt lat="47.156937" lon="13.806233">
 <ele>1075.16</ele>
 <time>2011-09-29T09:54:05Z</time>
 </trkpt>
 <trkpt lat="47.156803" lon="13.806302">
 <ele>1075.13</ele>
 <time>2011-09-29T09:54:07Z</time>
 </trkpt>
 <trkpt lat="47.156460" lon="13.806681">
 <ele>1074.35</ele>
 <time>2011-09-29T09:54:13Z</time>
 </trkpt>
 <trkpt lat="47.156139" lon="13.807021">
 <ele>1073.13</ele>
 <time>2011-09-29T09:54:18Z</time>
 </trkpt>
 <trkpt lat="47.156067" lon="13.807073">
 <ele>1072.84</ele>
 <time>2011-09-29T09:54:19Z</time>
 </trkpt>
 <trkpt lat="47.155624" lon="13.807226">
 <ele>1071.17</ele>
 <time>2011-09-29T09:54:25Z</time>
 </trkpt>
 <trkpt lat="47.155064" lon="13.807303">
 <ele>1070.78</ele>
 <time>2011-09-29T09:54:33Z</time>
 </trkpt>
 <trkpt lat="47.154427" lon="13.807240">
 <ele>1070.08</ele>
 <time>2011-09-29T09:54:42Z</time>
 </trkpt>
 <trkpt lat="47.154011" lon="13.807030">
 <ele>1069.33</ele>
 <time>2011-09-29T09:54:48Z</time>
 </trkpt>
 <trkpt lat="47.153610" lon="13.806954">
 <ele>1067.77</ele>
 <time>2011-09-29T09:54:53Z</time>
 </trkpt>
 <trkpt lat="47.153042" lon="13.806860">
 <ele>1063.53</ele>
 <time>2011-09-29T09:54:59Z</time>
 </trkpt>
 <trkpt lat="47.152840" lon="13.806819">
 <ele>1061.94</ele>
 <time>2011-09-29T09:55:01Z</time>
 </trkpt>
 <trkpt lat="47.152397" lon="13.806519">
 <ele>1059.12</ele>
 <time>2011-09-29T09:55:06Z</time>
 </trkpt>
 <trkpt lat="47.152042" lon="13.806423">
 <ele>1057.51</ele>
 <time>2011-09-29T09:55:10Z</time>
 </trkpt>
 <trkpt lat="47.151802" lon="13.806609">
 <ele>1056.98</ele>
 <time>2011-09-29T09:55:13Z</time>
 </trkpt>
 <trkpt lat="47.151737" lon="13.806701">
 <ele>1056.78</ele>
 <time>2011-09-29T09:55:14Z</time>
 </trkpt>
 <trkpt lat="47.151321" lon="13.807386">
 <ele>1055.48</ele>
 <time>2011-09-29T09:55:21Z</time>
 </trkpt>
 <trkpt lat="47.151039" lon="13.807631">
 <ele>1055.31</ele>
 <time>2011-09-29T09:55:25Z</time>
 </trkpt>
 <trkpt lat="47.150799" lon="13.807617">
 <ele>1055.23</ele>
 <time>2011-09-29T09:55:28Z</time>
 </trkpt>
 <trkpt lat="47.150658" lon="13.807518">
 <ele>1054.84</ele>
 <time>2011-09-29T09:55:30Z</time>
 </trkpt>
 <trkpt lat="47.150238" lon="13.807361">
 <ele>1054.42</ele>
 <time>2011-09-29T09:55:36Z</time>
 </trkpt>
 <trkpt lat="47.149975" lon="13.807521">
 <ele>1054.33</ele>
 <time>2011-09-29T09:55:40Z</time>
 </trkpt>
 <trkpt lat="47.149509" lon="13.807874">
 <ele>1053.56</ele>
 <time>2011-09-29T09:55:47Z</time>
 </trkpt>
 <trkpt lat="47.149075" lon="13.808044">
 <ele>1051.67</ele>
 <time>2011-09-29T09:55:53Z</time>
 </trkpt>
 <trkpt lat="47.148602" lon="13.808359">
 <ele>1050.83</ele>
 <time>2011-09-29T09:56:00Z</time>
 </trkpt>
 <trkpt lat="47.148075" lon="13.808648">
 <ele>1048.63</ele>
 <time>2011-09-29T09:56:07Z</time>
 </trkpt>
 <trkpt lat="47.147484" lon="13.808837">
 <ele>1044.96</ele>
 <time>2011-09-29T09:56:14Z</time>
 </trkpt>
 <trkpt lat="47.147060" lon="13.808785">
 <ele>1043.36</ele>
 <time>2011-09-29T09:56:19Z</time>
 </trkpt>
 <trkpt lat="47.146809" lon="13.808764">
 <ele>1042.97</ele>
 <time>2011-09-29T09:56:22Z</time>
 </trkpt>
 <trkpt lat="47.146420" lon="13.808874">
 <ele>1042.44</ele>
 <time>2011-09-29T09:56:27Z</time>
 </trkpt>
 <trkpt lat="47.145981" lon="13.809045">
 <ele>1040.93</ele>
 <time>2011-09-29T09:56:33Z</time>
 </trkpt>
 <trkpt lat="47.145836" lon="13.809076">
 <ele>1040.50</ele>
 <time>2011-09-29T09:56:35Z</time>
 </trkpt>
 <trkpt lat="47.145306" lon="13.808984">
 <ele>1039.08</ele>
 <time>2011-09-29T09:56:42Z</time>
 </trkpt>
 <trkpt lat="47.144928" lon="13.808836">
 <ele>1037.87</ele>
 <time>2011-09-29T09:56:47Z</time>
 </trkpt>
 <trkpt lat="47.144527" lon="13.808509">
 <ele>1036.74</ele>
 <time>2011-09-29T09:56:53Z</time>
 </trkpt>
 <trkpt lat="47.144222" lon="13.808294">
 <ele>1036.80</ele>
 <time>2011-09-29T09:56:58Z</time>
 </trkpt>
 <trkpt lat="47.143932" lon="13.808249">
 <ele>1037.06</ele>
 <time>2011-09-29T09:57:03Z</time>
 </trkpt>
 <trkpt lat="47.143818" lon="13.808251">
 <ele>1037.43</ele>
 <time>2011-09-29T09:57:05Z</time>
 </trkpt>
 <trkpt lat="47.143536" lon="13.808210">
 <ele>1038.17</ele>
 <time>2011-09-29T09:57:11Z</time>
 </trkpt>
 <trkpt lat="47.143429" lon="13.808324">
 <ele>1038.11</ele>
 <time>2011-09-29T09:57:15Z</time>
 </trkpt>
 <trkpt lat="47.143318" lon="13.808543">
 <ele>1037.92</ele>
 <time>2011-09-29T09:57:20Z</time>
 </trkpt>
 <trkpt lat="47.143284" lon="13.808554">
 <ele>1037.84</ele>
 <time>2011-09-29T09:57:21Z</time>
 </trkpt>
 <trkpt lat="47.142952" lon="13.808518">
 <ele>1036.91</ele>
 <time>2011-09-29T09:57:28Z</time>
 </trkpt>
 <trkpt lat="47.142735" lon="13.808502">
 <ele>1036.32</ele>
 <time>2011-09-29T09:57:33Z</time>
 </trkpt>
 <trkpt lat="47.142689" lon="13.808463">
 <ele>1036.40</ele>
 <time>2011-09-29T09:57:35Z</time>
 </trkpt>
 <trkpt lat="47.142693" lon="13.808286">
 <ele>1036.57</ele>
 <time>2011-09-29T09:57:39Z</time>
 </trkpt>
 <trkpt lat="47.142803" lon="13.807870">
 <ele>1036.35</ele>
 <time>2011-09-29T09:57:47Z</time>
 </trkpt>
 <trkpt lat="47.142944" lon="13.807557">
 <ele>1035.52</ele>
 <time>2011-09-29T09:57:52Z</time>
 </trkpt>
 <trkpt lat="47.143135" lon="13.807166">
 <ele>1034.01</ele>
 <time>2011-09-29T09:57:57Z</time>
 </trkpt>
 <trkpt lat="47.143211" lon="13.806971">
 <ele>1033.13</ele>
 <time>2011-09-29T09:57:59Z</time>
 </trkpt>
 <trkpt lat="47.143490" lon="13.806489">
 <ele>1031.56</ele>
 <time>2011-09-29T09:58:05Z</time>
 </trkpt>
 <trkpt lat="47.143703" lon="13.806200">
 <ele>1032.34</ele>
 <time>2011-09-29T09:58:10Z</time>
 </trkpt>
 <trkpt lat="47.143822" lon="13.805925">
 <ele>1033.46</ele>
 <time>2011-09-29T09:58:14Z</time>
 </trkpt>
 <trkpt lat="47.143936" lon="13.805350">
 <ele>1033.98</ele>
 <time>2011-09-29T09:58:21Z</time>
 </trkpt>
 <trkpt lat="47.143974" lon="13.804609">
 <ele>1032.74</ele>
 <time>2011-09-29T09:58:29Z</time>
 </trkpt>
 <trkpt lat="47.144154" lon="13.804098">
 <ele>1032.61</ele>
 <time>2011-09-29T09:58:35Z</time>
 </trkpt>
 <trkpt lat="47.144493" lon="13.803592">
 <ele>1032.68</ele>
 <time>2011-09-29T09:58:43Z</time>
 </trkpt>
 <trkpt lat="47.144684" lon="13.803173">
 <ele>1033.25</ele>
 <time>2011-09-29T09:58:49Z</time>
 </trkpt>
 <trkpt lat="47.144863" lon="13.802461">
 <ele>1033.53</ele>
 <time>2011-09-29T09:58:58Z</time>
 </trkpt>
 <trkpt lat="47.145031" lon="13.801849">
 <ele>1033.56</ele>
 <time>2011-09-29T09:59:06Z</time>
 </trkpt>
 <trkpt lat="47.145229" lon="13.801297">
 <ele>1033.98</ele>
 <time>2011-09-29T09:59:14Z</time>
 </trkpt>
 <trkpt lat="47.145508" lon="13.800606">
 <ele>1034.50</ele>
 <time>2011-09-29T09:59:24Z</time>
 </trkpt>
 <trkpt lat="47.145782" lon="13.799788">
 <ele>1034.35</ele>
 <time>2011-09-29T09:59:35Z</time>
 </trkpt>
 <trkpt lat="47.145908" lon="13.799139">
 <ele>1034.91</ele>
 <time>2011-09-29T09:59:44Z</time>
 </trkpt>
 <trkpt lat="47.146095" lon="13.798542">
 <ele>1036.04</ele>
 <time>2011-09-29T09:59:53Z</time>
 </trkpt>
 <trkpt lat="47.146297" lon="13.797891">
 <ele>1036.55</ele>
 <time>2011-09-29T10:00:03Z</time>
 </trkpt>
 <trkpt lat="47.146370" lon="13.797264">
 <ele>1036.78</ele>
 <time>2011-09-29T10:00:12Z</time>
 </trkpt>
 <trkpt lat="47.146351" lon="13.796697">
 <ele>1036.88</ele>
 <time>2011-09-29T10:00:20Z</time>
 </trkpt>
 <trkpt lat="47.146259" lon="13.796198">
 <ele>1036.89</ele>
 <time>2011-09-29T10:00:27Z</time>
 </trkpt>
 <trkpt lat="47.146233" lon="13.796052">
 <ele>1036.97</ele>
 <time>2011-09-29T10:00:29Z</time>
 </trkpt>
 <trkpt lat="47.146236" lon="13.795708">
 <ele>1037.16</ele>
 <time>2011-09-29T10:00:34Z</time>
 </trkpt>
 <trkpt lat="47.146362" lon="13.795359">
 <ele>1037.62</ele>
 <time>2011-09-29T10:00:40Z</time>
 </trkpt>
 <trkpt lat="47.146595" lon="13.794922">
 <ele>1038.43</ele>
 <time>2011-09-29T10:00:49Z</time>
 </trkpt>
 <trkpt lat="47.146717" lon="13.794632">
 <ele>1040.10</ele>
 <time>2011-09-29T10:00:56Z</time>
 </trkpt>
 <trkpt lat="47.146866" lon="13.794248">
 <ele>1042.46</ele>
 <time>2011-09-29T10:01:06Z</time>
 </trkpt>
 <trkpt lat="47.146870" lon="13.794210">
 <ele>1042.70</ele>
 <time>2011-09-29T10:01:07Z</time>
 </trkpt>
 <trkpt lat="47.146942" lon="13.794095">
 <ele>1043.40</ele>
 <time>2011-09-29T10:01:14Z</time>
 </trkpt>
 <trkpt lat="47.147022" lon="13.794089">
 <ele>1043.07</ele>
 <time>2011-09-29T10:01:25Z</time>
 </trkpt>
 <trkpt lat="47.147167" lon="13.793950">
 <ele>1043.16</ele>
 <time>2011-09-29T10:01:32Z</time>
 </trkpt>
 <trkpt lat="47.147327" lon="13.793830">
 <ele>1043.39</ele>
 <time>2011-09-29T10:01:39Z</time>
 </trkpt>
 <trkpt lat="47.147552" lon="13.793705">
 <ele>1044.23</ele>
 <time>2011-09-29T10:01:48Z</time>
 </trkpt>
 <trkpt lat="47.147736" lon="13.793619">
 <ele>1045.20</ele>
 <time>2011-09-29T10:01:55Z</time>
 </trkpt>
 <trkpt lat="47.147961" lon="13.793551">
 <ele>1045.57</ele>
 <time>2011-09-29T10:02:03Z</time>
 </trkpt>
 <trkpt lat="47.148174" lon="13.793500">
 <ele>1046.50</ele>
 <time>2011-09-29T10:02:11Z</time>
 </trkpt>
 <trkpt lat="47.148418" lon="13.793512">
 <ele>1047.11</ele>
 <time>2011-09-29T10:02:20Z</time>
 </trkpt>
 <trkpt lat="47.148670" lon="13.793623">
 <ele>1047.92</ele>
 <time>2011-09-29T10:02:29Z</time>
 </trkpt>
 <trkpt lat="47.148960" lon="13.793768">
 <ele>1048.84</ele>
 <time>2011-09-29T10:02:40Z</time>
 </trkpt>
 <trkpt lat="47.149071" lon="13.793755">
 <ele>1049.15</ele>
 <time>2011-09-29T10:02:44Z</time>
 </trkpt>
 </trkseg>
 </trk>
</gpx>
